<?xml version="1.0" encoding="UTF-8" standalone="no" ?>
<gpx xmlns="http://www.topografix.com/GPX/1/1" xmlns:xsi="http://www.w3.org/2001/XMLSchema-instance" xsi:schemaLocation="http://www.topografix.com/GPX/1/1 http://www.topografix.com/GPX/1/1/gpx.xsd" version="1.1" creator="VisuGPX - https://www.visugpx.com">
  <metadata>
    <name>Chemin Faisant à Pujol sur Ciron 2016</name>
    <desc><![CDATA[Très agréable balade dans le sauternais.]]></desc>
  </metadata>
  <trk>
    <name><![CDATA[2016-10-02 12:31:51]]></name>
    <trkseg>
      <trkpt lat="44.56168" lon="-0.35495">
        <ele>14.08</ele>
        <time>2016-10-02T06:50:11Z</time>
      </trkpt>
      <trkpt lat="44.56167" lon="-0.35495">
        <ele>14.08</ele>
        <time>2016-10-02T06:50:12Z</time>
      </trkpt>
      <trkpt lat="44.56168" lon="-0.35494">
        <ele>14.08</ele>
        <time>2016-10-02T06:50:34Z</time>
      </trkpt>
      <trkpt lat="44.56166" lon="-0.35495">
        <ele>14.08</ele>
        <time>2016-10-02T06:50:50Z</time>
      </trkpt>
      <trkpt lat="44.56165" lon="-0.35496">
        <ele>14.08</ele>
        <time>2016-10-02T06:51:02Z</time>
      </trkpt>
      <trkpt lat="44.56165" lon="-0.35496">
        <ele>12.63</ele>
        <time>2016-10-02T06:51:04Z</time>
      </trkpt>
      <trkpt lat="44.56165" lon="-0.35495">
        <ele>14.08</ele>
        <time>2016-10-02T06:51:11Z</time>
      </trkpt>
      <trkpt lat="44.56167" lon="-0.35493">
        <ele>14.56</ele>
        <time>2016-10-02T06:51:25Z</time>
      </trkpt>
      <trkpt lat="44.56168" lon="-0.35494">
        <ele>14.56</ele>
        <time>2016-10-02T06:51:40Z</time>
      </trkpt>
      <trkpt lat="44.5617" lon="-0.35492">
        <ele>14.56</ele>
        <time>2016-10-02T06:51:53Z</time>
      </trkpt>
      <trkpt lat="44.5617" lon="-0.35493">
        <ele>14.56</ele>
        <time>2016-10-02T06:52:02Z</time>
      </trkpt>
      <trkpt lat="44.56164" lon="-0.3549">
        <ele>14.56</ele>
        <time>2016-10-02T06:52:16Z</time>
      </trkpt>
      <trkpt lat="44.56165" lon="-0.35487">
        <ele>14.56</ele>
        <time>2016-10-02T06:52:46Z</time>
      </trkpt>
      <trkpt lat="44.56165" lon="-0.35484">
        <ele>14.56</ele>
        <time>2016-10-02T06:53:11Z</time>
      </trkpt>
      <trkpt lat="44.56165" lon="-0.35485">
        <ele>14.56</ele>
        <time>2016-10-02T06:53:34Z</time>
      </trkpt>
      <trkpt lat="44.56167" lon="-0.35487">
        <ele>14.56</ele>
        <time>2016-10-02T06:53:48Z</time>
      </trkpt>
      <trkpt lat="44.56166" lon="-0.35491">
        <ele>14.56</ele>
        <time>2016-10-02T06:54:08Z</time>
      </trkpt>
      <trkpt lat="44.56163" lon="-0.35492">
        <ele>15.04</ele>
        <time>2016-10-02T06:54:34Z</time>
      </trkpt>
      <trkpt lat="44.56165" lon="-0.35495">
        <ele>15.04</ele>
        <time>2016-10-02T06:54:58Z</time>
      </trkpt>
      <trkpt lat="44.56167" lon="-0.35493">
        <ele>15.04</ele>
        <time>2016-10-02T06:55:23Z</time>
      </trkpt>
      <trkpt lat="44.56166" lon="-0.3549">
        <ele>15.04</ele>
        <time>2016-10-02T06:55:40Z</time>
      </trkpt>
      <trkpt lat="44.56165" lon="-0.35491">
        <ele>15.04</ele>
        <time>2016-10-02T06:56:02Z</time>
      </trkpt>
      <trkpt lat="44.56164" lon="-0.35489">
        <ele>15.04</ele>
        <time>2016-10-02T06:56:23Z</time>
      </trkpt>
      <trkpt lat="44.56164" lon="-0.3549">
        <ele>15.04</ele>
        <time>2016-10-02T06:56:48Z</time>
      </trkpt>
      <trkpt lat="44.56165" lon="-0.35491">
        <ele>15.04</ele>
        <time>2016-10-02T06:57:07Z</time>
      </trkpt>
      <trkpt lat="44.56165" lon="-0.35491">
        <ele>15.04</ele>
        <time>2016-10-02T06:57:24Z</time>
      </trkpt>
      <trkpt lat="44.56166" lon="-0.35492">
        <ele>15.04</ele>
        <time>2016-10-02T06:57:56Z</time>
      </trkpt>
      <trkpt lat="44.56163" lon="-0.35492">
        <ele>15.04</ele>
        <time>2016-10-02T06:58:19Z</time>
      </trkpt>
      <trkpt lat="44.56164" lon="-0.35495">
        <ele>15.04</ele>
        <time>2016-10-02T06:58:36Z</time>
      </trkpt>
      <trkpt lat="44.56164" lon="-0.35495">
        <ele>15.04</ele>
        <time>2016-10-02T06:58:55Z</time>
      </trkpt>
      <trkpt lat="44.56164" lon="-0.35494">
        <ele>15.04</ele>
        <time>2016-10-02T06:59:11Z</time>
      </trkpt>
      <trkpt lat="44.56163" lon="-0.35498">
        <ele>15.04</ele>
        <time>2016-10-02T06:59:25Z</time>
      </trkpt>
      <trkpt lat="44.56163" lon="-0.35497">
        <ele>15.04</ele>
        <time>2016-10-02T06:59:43Z</time>
      </trkpt>
      <trkpt lat="44.56165" lon="-0.35497">
        <ele>15.52</ele>
        <time>2016-10-02T07:00:05Z</time>
      </trkpt>
      <trkpt lat="44.56166" lon="-0.35493">
        <ele>14.08</ele>
        <time>2016-10-02T07:00:28Z</time>
      </trkpt>
      <trkpt lat="44.56167" lon="-0.35492">
        <ele>14.08</ele>
        <time>2016-10-02T07:00:48Z</time>
      </trkpt>
      <trkpt lat="44.56165" lon="-0.35492">
        <ele>14.08</ele>
        <time>2016-10-02T07:01:13Z</time>
      </trkpt>
      <trkpt lat="44.56164" lon="-0.35491">
        <ele>14.08</ele>
        <time>2016-10-02T07:01:35Z</time>
      </trkpt>
      <trkpt lat="44.56167" lon="-0.35493">
        <ele>14.08</ele>
        <time>2016-10-02T07:01:53Z</time>
      </trkpt>
      <trkpt lat="44.56167" lon="-0.35493">
        <ele>14.08</ele>
        <time>2016-10-02T07:02:10Z</time>
      </trkpt>
      <trkpt lat="44.56166" lon="-0.35491">
        <ele>14.08</ele>
        <time>2016-10-02T07:02:24Z</time>
      </trkpt>
      <trkpt lat="44.56168" lon="-0.35489">
        <ele>14.08</ele>
        <time>2016-10-02T07:02:47Z</time>
      </trkpt>
      <trkpt lat="44.56169" lon="-0.35493">
        <ele>14.08</ele>
        <time>2016-10-02T07:02:59Z</time>
      </trkpt>
      <trkpt lat="44.56164" lon="-0.355">
        <ele>14.08</ele>
        <time>2016-10-02T07:03:16Z</time>
      </trkpt>
      <trkpt lat="44.56149" lon="-0.35514">
        <ele>14.56</ele>
        <time>2016-10-02T07:03:32Z</time>
      </trkpt>
      <trkpt lat="44.56133" lon="-0.35527">
        <ele>14.56</ele>
        <time>2016-10-02T07:03:48Z</time>
      </trkpt>
      <trkpt lat="44.56121" lon="-0.35539">
        <ele>14.56</ele>
        <time>2016-10-02T07:04:03Z</time>
      </trkpt>
      <trkpt lat="44.56111" lon="-0.35552">
        <ele>14.56</ele>
        <time>2016-10-02T07:04:16Z</time>
      </trkpt>
      <trkpt lat="44.56097" lon="-0.3557">
        <ele>14.08</ele>
        <time>2016-10-02T07:04:32Z</time>
      </trkpt>
      <trkpt lat="44.56082" lon="-0.35592">
        <ele>14.08</ele>
        <time>2016-10-02T07:04:49Z</time>
      </trkpt>
      <trkpt lat="44.56065" lon="-0.35616">
        <ele>14.08</ele>
        <time>2016-10-02T07:05:08Z</time>
      </trkpt>
      <trkpt lat="44.56048" lon="-0.35636">
        <ele>14.08</ele>
        <time>2016-10-02T07:05:26Z</time>
      </trkpt>
      <trkpt lat="44.56039" lon="-0.35647">
        <ele>14.08</ele>
        <time>2016-10-02T07:05:35Z</time>
      </trkpt>
      <trkpt lat="44.56031" lon="-0.35653">
        <ele>14.08</ele>
        <time>2016-10-02T07:05:41Z</time>
      </trkpt>
      <trkpt lat="44.56028" lon="-0.35654">
        <ele>14.08</ele>
        <time>2016-10-02T07:05:44Z</time>
      </trkpt>
      <trkpt lat="44.56009" lon="-0.35679">
        <ele>14.08</ele>
        <time>2016-10-02T07:06:06Z</time>
      </trkpt>
      <trkpt lat="44.55993" lon="-0.35696">
        <ele>14.08</ele>
        <time>2016-10-02T07:06:22Z</time>
      </trkpt>
      <trkpt lat="44.55972" lon="-0.3571">
        <ele>14.08</ele>
        <time>2016-10-02T07:06:41Z</time>
      </trkpt>
      <trkpt lat="44.5595" lon="-0.35723">
        <ele>14.56</ele>
        <time>2016-10-02T07:07:00Z</time>
      </trkpt>
      <trkpt lat="44.55927" lon="-0.35736">
        <ele>14.56</ele>
        <time>2016-10-02T07:07:19Z</time>
      </trkpt>
      <trkpt lat="44.55919" lon="-0.35739">
        <ele>14.56</ele>
        <time>2016-10-02T07:07:35Z</time>
      </trkpt>
      <trkpt lat="44.55919" lon="-0.35741">
        <ele>14.56</ele>
        <time>2016-10-02T07:07:45Z</time>
      </trkpt>
      <trkpt lat="44.55917" lon="-0.35744">
        <ele>14.56</ele>
        <time>2016-10-02T07:08:01Z</time>
      </trkpt>
      <trkpt lat="44.5591" lon="-0.3574">
        <ele>14.56</ele>
        <time>2016-10-02T07:08:13Z</time>
      </trkpt>
      <trkpt lat="44.55907" lon="-0.35737">
        <ele>14.56</ele>
        <time>2016-10-02T07:08:17Z</time>
      </trkpt>
      <trkpt lat="44.55902" lon="-0.35716">
        <ele>14.08</ele>
        <time>2016-10-02T07:08:31Z</time>
      </trkpt>
      <trkpt lat="44.55894" lon="-0.35693">
        <ele>12.63</ele>
        <time>2016-10-02T07:08:47Z</time>
      </trkpt>
      <trkpt lat="44.55885" lon="-0.35672">
        <ele>12.15</ele>
        <time>2016-10-02T07:09:03Z</time>
      </trkpt>
      <trkpt lat="44.55883" lon="-0.35668">
        <ele>12.63</ele>
        <time>2016-10-02T07:09:06Z</time>
      </trkpt>
      <trkpt lat="44.55878" lon="-0.35655">
        <ele>12.63</ele>
        <time>2016-10-02T07:09:22Z</time>
      </trkpt>
      <trkpt lat="44.55872" lon="-0.35638">
        <ele>12.63</ele>
        <time>2016-10-02T07:09:37Z</time>
      </trkpt>
      <trkpt lat="44.55868" lon="-0.35621">
        <ele>12.63</ele>
        <time>2016-10-02T07:09:52Z</time>
      </trkpt>
      <trkpt lat="44.55854" lon="-0.35601">
        <ele>12.63</ele>
        <time>2016-10-02T07:10:08Z</time>
      </trkpt>
      <trkpt lat="44.55842" lon="-0.35569">
        <ele>12.63</ele>
        <time>2016-10-02T07:10:30Z</time>
      </trkpt>
      <trkpt lat="44.55839" lon="-0.35557">
        <ele>12.63</ele>
        <time>2016-10-02T07:10:40Z</time>
      </trkpt>
      <trkpt lat="44.55832" lon="-0.35544">
        <ele>12.63</ele>
        <time>2016-10-02T07:10:50Z</time>
      </trkpt>
      <trkpt lat="44.5583" lon="-0.35538">
        <ele>13.12</ele>
        <time>2016-10-02T07:10:54Z</time>
      </trkpt>
      <trkpt lat="44.5582" lon="-0.35512">
        <ele>13.12</ele>
        <time>2016-10-02T07:11:13Z</time>
      </trkpt>
      <trkpt lat="44.55815" lon="-0.355">
        <ele>13.12</ele>
        <time>2016-10-02T07:11:22Z</time>
      </trkpt>
      <trkpt lat="44.55803" lon="-0.35476">
        <ele>14.56</ele>
        <time>2016-10-02T07:11:41Z</time>
      </trkpt>
      <trkpt lat="44.55796" lon="-0.35448">
        <ele>15.04</ele>
        <time>2016-10-02T07:11:59Z</time>
      </trkpt>
      <trkpt lat="44.55789" lon="-0.35424">
        <ele>15.04</ele>
        <time>2016-10-02T07:12:15Z</time>
      </trkpt>
      <trkpt lat="44.55779" lon="-0.35413">
        <ele>16.48</ele>
        <time>2016-10-02T07:12:31Z</time>
      </trkpt>
      <trkpt lat="44.55767" lon="-0.35395">
        <ele>17.44</ele>
        <time>2016-10-02T07:12:49Z</time>
      </trkpt>
      <trkpt lat="44.5576" lon="-0.35387">
        <ele>17.44</ele>
        <time>2016-10-02T07:12:58Z</time>
      </trkpt>
      <trkpt lat="44.5574" lon="-0.3538">
        <ele>18.4</ele>
        <time>2016-10-02T07:13:16Z</time>
      </trkpt>
      <trkpt lat="44.55723" lon="-0.35374">
        <ele>19.36</ele>
        <time>2016-10-02T07:13:33Z</time>
      </trkpt>
      <trkpt lat="44.55706" lon="-0.35375">
        <ele>20.32</ele>
        <time>2016-10-02T07:13:48Z</time>
      </trkpt>
      <trkpt lat="44.55686" lon="-0.35383">
        <ele>20.81</ele>
        <time>2016-10-02T07:14:05Z</time>
      </trkpt>
      <trkpt lat="44.5567" lon="-0.35397">
        <ele>21.29</ele>
        <time>2016-10-02T07:14:23Z</time>
      </trkpt>
      <trkpt lat="44.55653" lon="-0.35416">
        <ele>21.29</ele>
        <time>2016-10-02T07:14:39Z</time>
      </trkpt>
      <trkpt lat="44.55637" lon="-0.35432">
        <ele>19.84</ele>
        <time>2016-10-02T07:14:56Z</time>
      </trkpt>
      <trkpt lat="44.55614" lon="-0.35451">
        <ele>18.88</ele>
        <time>2016-10-02T07:15:16Z</time>
      </trkpt>
      <trkpt lat="44.55593" lon="-0.35457">
        <ele>17.44</ele>
        <time>2016-10-02T07:15:33Z</time>
      </trkpt>
      <trkpt lat="44.55575" lon="-0.35458">
        <ele>16.96</ele>
        <time>2016-10-02T07:15:49Z</time>
      </trkpt>
      <trkpt lat="44.5555" lon="-0.35464">
        <ele>17.44</ele>
        <time>2016-10-02T07:16:09Z</time>
      </trkpt>
      <trkpt lat="44.55529" lon="-0.35467">
        <ele>17.44</ele>
        <time>2016-10-02T07:16:28Z</time>
      </trkpt>
      <trkpt lat="44.55508" lon="-0.35467">
        <ele>17.44</ele>
        <time>2016-10-02T07:16:48Z</time>
      </trkpt>
      <trkpt lat="44.5549" lon="-0.35462">
        <ele>17.44</ele>
        <time>2016-10-02T07:17:02Z</time>
      </trkpt>
      <trkpt lat="44.5546" lon="-0.3545">
        <ele>18.4</ele>
        <time>2016-10-02T07:17:21Z</time>
      </trkpt>
      <trkpt lat="44.55449" lon="-0.35443">
        <ele>18.4</ele>
        <time>2016-10-02T07:17:35Z</time>
      </trkpt>
      <trkpt lat="44.55445" lon="-0.35439">
        <ele>18.88</ele>
        <time>2016-10-02T07:17:48Z</time>
      </trkpt>
      <trkpt lat="44.55433" lon="-0.3543">
        <ele>19.36</ele>
        <time>2016-10-02T07:18:03Z</time>
      </trkpt>
      <trkpt lat="44.55416" lon="-0.35431">
        <ele>19.36</ele>
        <time>2016-10-02T07:18:19Z</time>
      </trkpt>
      <trkpt lat="44.55399" lon="-0.35444">
        <ele>19.84</ele>
        <time>2016-10-02T07:18:37Z</time>
      </trkpt>
      <trkpt lat="44.55379" lon="-0.35455">
        <ele>20.32</ele>
        <time>2016-10-02T07:18:55Z</time>
      </trkpt>
      <trkpt lat="44.5536" lon="-0.35469">
        <ele>20.32</ele>
        <time>2016-10-02T07:19:13Z</time>
      </trkpt>
      <trkpt lat="44.55342" lon="-0.35485">
        <ele>20.81</ele>
        <time>2016-10-02T07:19:31Z</time>
      </trkpt>
      <trkpt lat="44.55324" lon="-0.35501">
        <ele>20.81</ele>
        <time>2016-10-02T07:19:48Z</time>
      </trkpt>
      <trkpt lat="44.55311" lon="-0.35522">
        <ele>21.29</ele>
        <time>2016-10-02T07:20:03Z</time>
      </trkpt>
      <trkpt lat="44.55301" lon="-0.35536">
        <ele>19.84</ele>
        <time>2016-10-02T07:20:14Z</time>
      </trkpt>
      <trkpt lat="44.55284" lon="-0.3555">
        <ele>19.36</ele>
        <time>2016-10-02T07:20:31Z</time>
      </trkpt>
      <trkpt lat="44.55263" lon="-0.35559">
        <ele>19.36</ele>
        <time>2016-10-02T07:20:49Z</time>
      </trkpt>
      <trkpt lat="44.55241" lon="-0.35572">
        <ele>19.36</ele>
        <time>2016-10-02T07:21:07Z</time>
      </trkpt>
      <trkpt lat="44.55222" lon="-0.35587">
        <ele>18.88</ele>
        <time>2016-10-02T07:21:26Z</time>
      </trkpt>
      <trkpt lat="44.55199" lon="-0.35601">
        <ele>18.4</ele>
        <time>2016-10-02T07:21:46Z</time>
      </trkpt>
      <trkpt lat="44.55175" lon="-0.35619">
        <ele>18.4</ele>
        <time>2016-10-02T07:22:09Z</time>
      </trkpt>
      <trkpt lat="44.55155" lon="-0.35634">
        <ele>18.4</ele>
        <time>2016-10-02T07:22:28Z</time>
      </trkpt>
      <trkpt lat="44.55137" lon="-0.35651">
        <ele>17.44</ele>
        <time>2016-10-02T07:22:47Z</time>
      </trkpt>
      <trkpt lat="44.55122" lon="-0.35669">
        <ele>16.96</ele>
        <time>2016-10-02T07:23:04Z</time>
      </trkpt>
      <trkpt lat="44.55104" lon="-0.35685">
        <ele>16.48</ele>
        <time>2016-10-02T07:23:21Z</time>
      </trkpt>
      <trkpt lat="44.55088" lon="-0.35705">
        <ele>16.48</ele>
        <time>2016-10-02T07:23:38Z</time>
      </trkpt>
      <trkpt lat="44.55067" lon="-0.35725">
        <ele>16.96</ele>
        <time>2016-10-02T07:23:56Z</time>
      </trkpt>
      <trkpt lat="44.55045" lon="-0.35741">
        <ele>16.96</ele>
        <time>2016-10-02T07:24:14Z</time>
      </trkpt>
      <trkpt lat="44.55025" lon="-0.35757">
        <ele>16.96</ele>
        <time>2016-10-02T07:24:31Z</time>
      </trkpt>
      <trkpt lat="44.55006" lon="-0.35775">
        <ele>16.96</ele>
        <time>2016-10-02T07:24:49Z</time>
      </trkpt>
      <trkpt lat="44.54985" lon="-0.35784">
        <ele>16.48</ele>
        <time>2016-10-02T07:25:07Z</time>
      </trkpt>
      <trkpt lat="44.54962" lon="-0.35785">
        <ele>16.48</ele>
        <time>2016-10-02T07:25:25Z</time>
      </trkpt>
      <trkpt lat="44.54954" lon="-0.35783">
        <ele>16.48</ele>
        <time>2016-10-02T07:25:31Z</time>
      </trkpt>
      <trkpt lat="44.54949" lon="-0.35781">
        <ele>16.48</ele>
        <time>2016-10-02T07:25:35Z</time>
      </trkpt>
      <trkpt lat="44.54928" lon="-0.35772">
        <ele>18.4</ele>
        <time>2016-10-02T07:25:52Z</time>
      </trkpt>
      <trkpt lat="44.54911" lon="-0.35767">
        <ele>18.88</ele>
        <time>2016-10-02T07:26:09Z</time>
      </trkpt>
      <trkpt lat="44.54891" lon="-0.3577">
        <ele>19.84</ele>
        <time>2016-10-02T07:26:26Z</time>
      </trkpt>
      <trkpt lat="44.5487" lon="-0.35776">
        <ele>19.84</ele>
        <time>2016-10-02T07:26:43Z</time>
      </trkpt>
      <trkpt lat="44.54861" lon="-0.35779">
        <ele>20.32</ele>
        <time>2016-10-02T07:26:56Z</time>
      </trkpt>
      <trkpt lat="44.54859" lon="-0.3578">
        <ele>20.32</ele>
        <time>2016-10-02T07:27:11Z</time>
      </trkpt>
      <trkpt lat="44.54847" lon="-0.35787">
        <ele>20.32</ele>
        <time>2016-10-02T07:27:24Z</time>
      </trkpt>
      <trkpt lat="44.54825" lon="-0.35797">
        <ele>20.32</ele>
        <time>2016-10-02T07:27:46Z</time>
      </trkpt>
      <trkpt lat="44.54801" lon="-0.35811">
        <ele>20.32</ele>
        <time>2016-10-02T07:28:04Z</time>
      </trkpt>
      <trkpt lat="44.548" lon="-0.35812">
        <ele>20.32</ele>
        <time>2016-10-02T07:28:06Z</time>
      </trkpt>
      <trkpt lat="44.54788" lon="-0.35827">
        <ele>20.32</ele>
        <time>2016-10-02T07:28:23Z</time>
      </trkpt>
      <trkpt lat="44.54772" lon="-0.3584">
        <ele>19.36</ele>
        <time>2016-10-02T07:28:40Z</time>
      </trkpt>
      <trkpt lat="44.54757" lon="-0.35863">
        <ele>19.36</ele>
        <time>2016-10-02T07:28:59Z</time>
      </trkpt>
      <trkpt lat="44.54754" lon="-0.35865">
        <ele>19.36</ele>
        <time>2016-10-02T07:29:01Z</time>
      </trkpt>
      <trkpt lat="44.54752" lon="-0.3587">
        <ele>18.88</ele>
        <time>2016-10-02T07:29:04Z</time>
      </trkpt>
      <trkpt lat="44.54758" lon="-0.35904">
        <ele>16.96</ele>
        <time>2016-10-02T07:29:28Z</time>
      </trkpt>
      <trkpt lat="44.54766" lon="-0.3592">
        <ele>16</ele>
        <time>2016-10-02T07:29:42Z</time>
      </trkpt>
      <trkpt lat="44.54778" lon="-0.35928">
        <ele>15.52</ele>
        <time>2016-10-02T07:29:59Z</time>
      </trkpt>
      <trkpt lat="44.54781" lon="-0.35931">
        <ele>16</ele>
        <time>2016-10-02T07:30:14Z</time>
      </trkpt>
      <trkpt lat="44.5478" lon="-0.3594">
        <ele>14.56</ele>
        <time>2016-10-02T07:30:30Z</time>
      </trkpt>
      <trkpt lat="44.54778" lon="-0.35945">
        <ele>14.56</ele>
        <time>2016-10-02T07:30:55Z</time>
      </trkpt>
      <trkpt lat="44.54781" lon="-0.35942">
        <ele>16</ele>
        <time>2016-10-02T07:31:13Z</time>
      </trkpt>
      <trkpt lat="44.54783" lon="-0.35939">
        <ele>16</ele>
        <time>2016-10-02T07:31:36Z</time>
      </trkpt>
      <trkpt lat="44.54783" lon="-0.35937">
        <ele>16</ele>
        <time>2016-10-02T07:31:55Z</time>
      </trkpt>
      <trkpt lat="44.54786" lon="-0.35935">
        <ele>16</ele>
        <time>2016-10-02T07:32:16Z</time>
      </trkpt>
      <trkpt lat="44.54798" lon="-0.35937">
        <ele>16</ele>
        <time>2016-10-02T07:32:30Z</time>
      </trkpt>
      <trkpt lat="44.54807" lon="-0.35953">
        <ele>16.96</ele>
        <time>2016-10-02T07:32:47Z</time>
      </trkpt>
      <trkpt lat="44.54811" lon="-0.35969">
        <ele>16</ele>
        <time>2016-10-02T07:33:03Z</time>
      </trkpt>
      <trkpt lat="44.54806" lon="-0.35982">
        <ele>15.52</ele>
        <time>2016-10-02T07:33:18Z</time>
      </trkpt>
      <trkpt lat="44.54799" lon="-0.3599">
        <ele>15.52</ele>
        <time>2016-10-02T07:33:28Z</time>
      </trkpt>
      <trkpt lat="44.54787" lon="-0.36002">
        <ele>15.52</ele>
        <time>2016-10-02T07:33:44Z</time>
      </trkpt>
      <trkpt lat="44.54783" lon="-0.36021">
        <ele>15.52</ele>
        <time>2016-10-02T07:34:00Z</time>
      </trkpt>
      <trkpt lat="44.5478" lon="-0.36035">
        <ele>15.52</ele>
        <time>2016-10-02T07:34:15Z</time>
      </trkpt>
      <trkpt lat="44.54779" lon="-0.36049">
        <ele>16</ele>
        <time>2016-10-02T07:34:30Z</time>
      </trkpt>
      <trkpt lat="44.54773" lon="-0.36066">
        <ele>16</ele>
        <time>2016-10-02T07:34:46Z</time>
      </trkpt>
      <trkpt lat="44.54767" lon="-0.3609">
        <ele>16</ele>
        <time>2016-10-02T07:35:02Z</time>
      </trkpt>
      <trkpt lat="44.54761" lon="-0.36116">
        <ele>16.48</ele>
        <time>2016-10-02T07:35:18Z</time>
      </trkpt>
      <trkpt lat="44.54755" lon="-0.36131">
        <ele>16.48</ele>
        <time>2016-10-02T07:35:34Z</time>
      </trkpt>
      <trkpt lat="44.54743" lon="-0.36145">
        <ele>16.96</ele>
        <time>2016-10-02T07:35:52Z</time>
      </trkpt>
      <trkpt lat="44.54727" lon="-0.36162">
        <ele>16.96</ele>
        <time>2016-10-02T07:36:08Z</time>
      </trkpt>
      <trkpt lat="44.5472" lon="-0.36162">
        <ele>17.44</ele>
        <time>2016-10-02T07:36:24Z</time>
      </trkpt>
      <trkpt lat="44.54713" lon="-0.36159">
        <ele>17.44</ele>
        <time>2016-10-02T07:36:39Z</time>
      </trkpt>
      <trkpt lat="44.54706" lon="-0.36153">
        <ele>17.92</ele>
        <time>2016-10-02T07:36:54Z</time>
      </trkpt>
      <trkpt lat="44.54693" lon="-0.36146">
        <ele>18.4</ele>
        <time>2016-10-02T07:37:11Z</time>
      </trkpt>
      <trkpt lat="44.54677" lon="-0.36133">
        <ele>18.88</ele>
        <time>2016-10-02T07:37:25Z</time>
      </trkpt>
      <trkpt lat="44.54659" lon="-0.36123">
        <ele>19.36</ele>
        <time>2016-10-02T07:37:43Z</time>
      </trkpt>
      <trkpt lat="44.54644" lon="-0.36116">
        <ele>19.84</ele>
        <time>2016-10-02T07:37:58Z</time>
      </trkpt>
      <trkpt lat="44.54643" lon="-0.36108">
        <ele>20.32</ele>
        <time>2016-10-02T07:38:14Z</time>
      </trkpt>
      <trkpt lat="44.54626" lon="-0.3611">
        <ele>21.77</ele>
        <time>2016-10-02T07:38:30Z</time>
      </trkpt>
      <trkpt lat="44.54592" lon="-0.36114">
        <ele>23.21</ele>
        <time>2016-10-02T07:38:49Z</time>
      </trkpt>
      <trkpt lat="44.54575" lon="-0.36105">
        <ele>22.25</ele>
        <time>2016-10-02T07:39:06Z</time>
      </trkpt>
      <trkpt lat="44.54574" lon="-0.36099">
        <ele>22.25</ele>
        <time>2016-10-02T07:39:21Z</time>
      </trkpt>
      <trkpt lat="44.54581" lon="-0.36085">
        <ele>21.77</ele>
        <time>2016-10-02T07:39:38Z</time>
      </trkpt>
      <trkpt lat="44.54594" lon="-0.36075">
        <ele>21.77</ele>
        <time>2016-10-02T07:39:56Z</time>
      </trkpt>
      <trkpt lat="44.546" lon="-0.36066">
        <ele>22.25</ele>
        <time>2016-10-02T07:40:11Z</time>
      </trkpt>
      <trkpt lat="44.54601" lon="-0.36065">
        <ele>22.25</ele>
        <time>2016-10-02T07:40:26Z</time>
      </trkpt>
      <trkpt lat="44.54605" lon="-0.36058">
        <ele>22.25</ele>
        <time>2016-10-02T07:40:39Z</time>
      </trkpt>
      <trkpt lat="44.54613" lon="-0.36035">
        <ele>22.25</ele>
        <time>2016-10-02T07:40:57Z</time>
      </trkpt>
      <trkpt lat="44.54617" lon="-0.36008">
        <ele>23.69</ele>
        <time>2016-10-02T07:41:14Z</time>
      </trkpt>
      <trkpt lat="44.54616" lon="-0.36007">
        <ele>23.69</ele>
        <time>2016-10-02T07:41:15Z</time>
      </trkpt>
      <trkpt lat="44.54612" lon="-0.35998">
        <ele>24.65</ele>
        <time>2016-10-02T07:41:24Z</time>
      </trkpt>
      <trkpt lat="44.5461" lon="-0.3598">
        <ele>26.57</ele>
        <time>2016-10-02T07:41:40Z</time>
      </trkpt>
      <trkpt lat="44.54615" lon="-0.35958">
        <ele>27.05</ele>
        <time>2016-10-02T07:41:57Z</time>
      </trkpt>
      <trkpt lat="44.54607" lon="-0.35929">
        <ele>28.5</ele>
        <time>2016-10-02T07:42:14Z</time>
      </trkpt>
      <trkpt lat="44.54595" lon="-0.35913">
        <ele>29.94</ele>
        <time>2016-10-02T07:42:30Z</time>
      </trkpt>
      <trkpt lat="44.54585" lon="-0.35882">
        <ele>30.9</ele>
        <time>2016-10-02T07:42:48Z</time>
      </trkpt>
      <trkpt lat="44.54577" lon="-0.35855">
        <ele>31.86</ele>
        <time>2016-10-02T07:43:06Z</time>
      </trkpt>
      <trkpt lat="44.54566" lon="-0.35833">
        <ele>32.82</ele>
        <time>2016-10-02T07:43:23Z</time>
      </trkpt>
      <trkpt lat="44.54556" lon="-0.3581">
        <ele>34.26</ele>
        <time>2016-10-02T07:43:39Z</time>
      </trkpt>
      <trkpt lat="44.54544" lon="-0.35797">
        <ele>35.23</ele>
        <time>2016-10-02T07:43:56Z</time>
      </trkpt>
      <trkpt lat="44.54536" lon="-0.35779">
        <ele>36.67</ele>
        <time>2016-10-02T07:44:12Z</time>
      </trkpt>
      <trkpt lat="44.54529" lon="-0.3575">
        <ele>38.11</ele>
        <time>2016-10-02T07:44:29Z</time>
      </trkpt>
      <trkpt lat="44.5452" lon="-0.35727">
        <ele>39.07</ele>
        <time>2016-10-02T07:44:44Z</time>
      </trkpt>
      <trkpt lat="44.5451" lon="-0.35699">
        <ele>39.55</ele>
        <time>2016-10-02T07:45:01Z</time>
      </trkpt>
      <trkpt lat="44.545" lon="-0.35668">
        <ele>40.03</ele>
        <time>2016-10-02T07:45:21Z</time>
      </trkpt>
      <trkpt lat="44.54495" lon="-0.35647">
        <ele>40.03</ele>
        <time>2016-10-02T07:45:36Z</time>
      </trkpt>
      <trkpt lat="44.54498" lon="-0.3564">
        <ele>40.51</ele>
        <time>2016-10-02T07:45:41Z</time>
      </trkpt>
      <trkpt lat="44.54518" lon="-0.35626">
        <ele>40.51</ele>
        <time>2016-10-02T07:45:59Z</time>
      </trkpt>
      <trkpt lat="44.54536" lon="-0.35615">
        <ele>40.51</ele>
        <time>2016-10-02T07:46:16Z</time>
      </trkpt>
      <trkpt lat="44.54555" lon="-0.35602">
        <ele>40.51</ele>
        <time>2016-10-02T07:46:36Z</time>
      </trkpt>
      <trkpt lat="44.54556" lon="-0.35598">
        <ele>40.51</ele>
        <time>2016-10-02T07:46:39Z</time>
      </trkpt>
      <trkpt lat="44.54558" lon="-0.35579">
        <ele>40.99</ele>
        <time>2016-10-02T07:46:56Z</time>
      </trkpt>
      <trkpt lat="44.54555" lon="-0.35574">
        <ele>40.99</ele>
        <time>2016-10-02T07:47:01Z</time>
      </trkpt>
      <trkpt lat="44.54545" lon="-0.35553">
        <ele>41.47</ele>
        <time>2016-10-02T07:47:18Z</time>
      </trkpt>
      <trkpt lat="44.54534" lon="-0.35534">
        <ele>41.95</ele>
        <time>2016-10-02T07:47:36Z</time>
      </trkpt>
      <trkpt lat="44.54523" lon="-0.35516">
        <ele>41.95</ele>
        <time>2016-10-02T07:47:53Z</time>
      </trkpt>
      <trkpt lat="44.54511" lon="-0.35494">
        <ele>43.4</ele>
        <time>2016-10-02T07:48:13Z</time>
      </trkpt>
      <trkpt lat="44.54502" lon="-0.35475">
        <ele>44.84</ele>
        <time>2016-10-02T07:48:29Z</time>
      </trkpt>
      <trkpt lat="44.54492" lon="-0.35455">
        <ele>45.8</ele>
        <time>2016-10-02T07:48:47Z</time>
      </trkpt>
      <trkpt lat="44.54481" lon="-0.35436">
        <ele>46.28</ele>
        <time>2016-10-02T07:49:04Z</time>
      </trkpt>
      <trkpt lat="44.54476" lon="-0.35415">
        <ele>47.24</ele>
        <time>2016-10-02T07:49:21Z</time>
      </trkpt>
      <trkpt lat="44.54469" lon="-0.354">
        <ele>47.24</ele>
        <time>2016-10-02T07:49:33Z</time>
      </trkpt>
      <trkpt lat="44.54455" lon="-0.35368">
        <ele>48.68</ele>
        <time>2016-10-02T07:49:57Z</time>
      </trkpt>
      <trkpt lat="44.54446" lon="-0.35339">
        <ele>49.65</ele>
        <time>2016-10-02T07:50:15Z</time>
      </trkpt>
      <trkpt lat="44.54434" lon="-0.35313">
        <ele>51.09</ele>
        <time>2016-10-02T07:50:34Z</time>
      </trkpt>
      <trkpt lat="44.54426" lon="-0.35284">
        <ele>51.57</ele>
        <time>2016-10-02T07:50:53Z</time>
      </trkpt>
      <trkpt lat="44.54419" lon="-0.35261">
        <ele>52.53</ele>
        <time>2016-10-02T07:51:11Z</time>
      </trkpt>
      <trkpt lat="44.54408" lon="-0.35232">
        <ele>53.97</ele>
        <time>2016-10-02T07:51:32Z</time>
      </trkpt>
      <trkpt lat="44.54405" lon="-0.35212">
        <ele>54.93</ele>
        <time>2016-10-02T07:51:45Z</time>
      </trkpt>
      <trkpt lat="44.54408" lon="-0.35181">
        <ele>55.89</ele>
        <time>2016-10-02T07:52:04Z</time>
      </trkpt>
      <trkpt lat="44.5441" lon="-0.35153">
        <ele>57.34</ele>
        <time>2016-10-02T07:52:23Z</time>
      </trkpt>
      <trkpt lat="44.54409" lon="-0.35122">
        <ele>58.3</ele>
        <time>2016-10-02T07:52:42Z</time>
      </trkpt>
      <trkpt lat="44.54404" lon="-0.35093">
        <ele>59.26</ele>
        <time>2016-10-02T07:53:00Z</time>
      </trkpt>
      <trkpt lat="44.54396" lon="-0.3507">
        <ele>59.26</ele>
        <time>2016-10-02T07:53:17Z</time>
      </trkpt>
      <trkpt lat="44.54383" lon="-0.35046">
        <ele>59.26</ele>
        <time>2016-10-02T07:53:35Z</time>
      </trkpt>
      <trkpt lat="44.54381" lon="-0.35043">
        <ele>59.26</ele>
        <time>2016-10-02T07:53:37Z</time>
      </trkpt>
      <trkpt lat="44.54372" lon="-0.35026">
        <ele>59.26</ele>
        <time>2016-10-02T07:53:52Z</time>
      </trkpt>
      <trkpt lat="44.54365" lon="-0.35013">
        <ele>59.74</ele>
        <time>2016-10-02T07:54:03Z</time>
      </trkpt>
      <trkpt lat="44.54352" lon="-0.34992">
        <ele>60.22</ele>
        <time>2016-10-02T07:54:21Z</time>
      </trkpt>
      <trkpt lat="44.54341" lon="-0.34971">
        <ele>61.66</ele>
        <time>2016-10-02T07:54:39Z</time>
      </trkpt>
      <trkpt lat="44.54328" lon="-0.34946">
        <ele>62.62</ele>
        <time>2016-10-02T07:54:59Z</time>
      </trkpt>
      <trkpt lat="44.54318" lon="-0.34927">
        <ele>64.55</ele>
        <time>2016-10-02T07:55:16Z</time>
      </trkpt>
      <trkpt lat="44.54316" lon="-0.34916">
        <ele>65.03</ele>
        <time>2016-10-02T07:55:27Z</time>
      </trkpt>
      <trkpt lat="44.54328" lon="-0.34902">
        <ele>65.51</ele>
        <time>2016-10-02T07:55:43Z</time>
      </trkpt>
      <trkpt lat="44.5433" lon="-0.34901">
        <ele>65.51</ele>
        <time>2016-10-02T07:55:45Z</time>
      </trkpt>
      <trkpt lat="44.54349" lon="-0.3489">
        <ele>65.51</ele>
        <time>2016-10-02T07:56:04Z</time>
      </trkpt>
      <trkpt lat="44.54366" lon="-0.34881">
        <ele>65.51</ele>
        <time>2016-10-02T07:56:22Z</time>
      </trkpt>
      <trkpt lat="44.54378" lon="-0.34874">
        <ele>63.1</ele>
        <time>2016-10-02T07:56:40Z</time>
      </trkpt>
      <trkpt lat="44.5439" lon="-0.34874">
        <ele>61.18</ele>
        <time>2016-10-02T07:56:54Z</time>
      </trkpt>
      <trkpt lat="44.54404" lon="-0.34876">
        <ele>60.22</ele>
        <time>2016-10-02T07:57:09Z</time>
      </trkpt>
      <trkpt lat="44.54418" lon="-0.34876">
        <ele>58.3</ele>
        <time>2016-10-02T07:57:24Z</time>
      </trkpt>
      <trkpt lat="44.54435" lon="-0.34875">
        <ele>56.37</ele>
        <time>2016-10-02T07:57:42Z</time>
      </trkpt>
      <trkpt lat="44.54454" lon="-0.34869">
        <ele>54.93</ele>
        <time>2016-10-02T07:58:00Z</time>
      </trkpt>
      <trkpt lat="44.54473" lon="-0.3486">
        <ele>53.49</ele>
        <time>2016-10-02T07:58:16Z</time>
      </trkpt>
      <trkpt lat="44.5449" lon="-0.3485">
        <ele>52.05</ele>
        <time>2016-10-02T07:58:33Z</time>
      </trkpt>
      <trkpt lat="44.54502" lon="-0.34841">
        <ele>50.61</ele>
        <time>2016-10-02T07:58:51Z</time>
      </trkpt>
      <trkpt lat="44.54517" lon="-0.34824">
        <ele>50.13</ele>
        <time>2016-10-02T07:59:08Z</time>
      </trkpt>
      <trkpt lat="44.54522" lon="-0.3482">
        <ele>50.13</ele>
        <time>2016-10-02T07:59:22Z</time>
      </trkpt>
      <trkpt lat="44.54525" lon="-0.34816">
        <ele>50.13</ele>
        <time>2016-10-02T07:59:28Z</time>
      </trkpt>
      <trkpt lat="44.54538" lon="-0.34793">
        <ele>50.13</ele>
        <time>2016-10-02T07:59:46Z</time>
      </trkpt>
      <trkpt lat="44.54547" lon="-0.34782">
        <ele>50.13</ele>
        <time>2016-10-02T07:59:54Z</time>
      </trkpt>
      <trkpt lat="44.5456" lon="-0.34759">
        <ele>51.57</ele>
        <time>2016-10-02T08:00:12Z</time>
      </trkpt>
      <trkpt lat="44.54574" lon="-0.34738">
        <ele>52.53</ele>
        <time>2016-10-02T08:00:29Z</time>
      </trkpt>
      <trkpt lat="44.54587" lon="-0.3472">
        <ele>53.97</ele>
        <time>2016-10-02T08:00:46Z</time>
      </trkpt>
      <trkpt lat="44.54598" lon="-0.34702">
        <ele>55.89</ele>
        <time>2016-10-02T08:01:02Z</time>
      </trkpt>
      <trkpt lat="44.54609" lon="-0.3468">
        <ele>57.34</ele>
        <time>2016-10-02T08:01:19Z</time>
      </trkpt>
      <trkpt lat="44.54619" lon="-0.34659">
        <ele>58.78</ele>
        <time>2016-10-02T08:01:36Z</time>
      </trkpt>
      <trkpt lat="44.54628" lon="-0.34642">
        <ele>60.7</ele>
        <time>2016-10-02T08:01:50Z</time>
      </trkpt>
      <trkpt lat="44.5464" lon="-0.34623">
        <ele>63.58</ele>
        <time>2016-10-02T08:02:08Z</time>
      </trkpt>
      <trkpt lat="44.54643" lon="-0.34619">
        <ele>64.07</ele>
        <time>2016-10-02T08:02:12Z</time>
      </trkpt>
      <trkpt lat="44.54657" lon="-0.34597">
        <ele>65.99</ele>
        <time>2016-10-02T08:02:31Z</time>
      </trkpt>
      <trkpt lat="44.54669" lon="-0.34581">
        <ele>68.39</ele>
        <time>2016-10-02T08:02:48Z</time>
      </trkpt>
      <trkpt lat="44.5468" lon="-0.34564">
        <ele>71.27</ele>
        <time>2016-10-02T08:03:04Z</time>
      </trkpt>
      <trkpt lat="44.54693" lon="-0.34544">
        <ele>73.68</ele>
        <time>2016-10-02T08:03:24Z</time>
      </trkpt>
      <trkpt lat="44.54698" lon="-0.34534">
        <ele>74.16</ele>
        <time>2016-10-02T08:03:39Z</time>
      </trkpt>
      <trkpt lat="44.54696" lon="-0.34533">
        <ele>74.16</ele>
        <time>2016-10-02T08:03:55Z</time>
      </trkpt>
      <trkpt lat="44.54696" lon="-0.34533">
        <ele>74.16</ele>
        <time>2016-10-02T08:04:12Z</time>
      </trkpt>
      <trkpt lat="44.54697" lon="-0.34531">
        <ele>74.16</ele>
        <time>2016-10-02T08:04:36Z</time>
      </trkpt>
      <trkpt lat="44.54699" lon="-0.34531">
        <ele>74.16</ele>
        <time>2016-10-02T08:04:53Z</time>
      </trkpt>
      <trkpt lat="44.54701" lon="-0.34533">
        <ele>74.16</ele>
        <time>2016-10-02T08:05:13Z</time>
      </trkpt>
      <trkpt lat="44.54703" lon="-0.34536">
        <ele>74.16</ele>
        <time>2016-10-02T08:05:25Z</time>
      </trkpt>
      <trkpt lat="44.54706" lon="-0.3454">
        <ele>74.16</ele>
        <time>2016-10-02T08:05:45Z</time>
      </trkpt>
      <trkpt lat="44.54716" lon="-0.34551">
        <ele>74.16</ele>
        <time>2016-10-02T08:06:04Z</time>
      </trkpt>
      <trkpt lat="44.54735" lon="-0.34562">
        <ele>74.64</ele>
        <time>2016-10-02T08:06:23Z</time>
      </trkpt>
      <trkpt lat="44.54738" lon="-0.34565">
        <ele>74.64</ele>
        <time>2016-10-02T08:06:27Z</time>
      </trkpt>
      <trkpt lat="44.54746" lon="-0.3457">
        <ele>74.64</ele>
        <time>2016-10-02T08:06:41Z</time>
      </trkpt>
      <trkpt lat="44.54753" lon="-0.34575">
        <ele>74.64</ele>
        <time>2016-10-02T08:06:53Z</time>
      </trkpt>
      <trkpt lat="44.54765" lon="-0.34591">
        <ele>73.68</ele>
        <time>2016-10-02T08:07:12Z</time>
      </trkpt>
      <trkpt lat="44.54778" lon="-0.3461">
        <ele>73.2</ele>
        <time>2016-10-02T08:07:29Z</time>
      </trkpt>
      <trkpt lat="44.54794" lon="-0.3463">
        <ele>72.24</ele>
        <time>2016-10-02T08:07:47Z</time>
      </trkpt>
      <trkpt lat="44.54802" lon="-0.34634">
        <ele>72.24</ele>
        <time>2016-10-02T08:07:54Z</time>
      </trkpt>
      <trkpt lat="44.54824" lon="-0.34633">
        <ele>71.76</ele>
        <time>2016-10-02T08:08:14Z</time>
      </trkpt>
      <trkpt lat="44.5484" lon="-0.34627">
        <ele>71.27</ele>
        <time>2016-10-02T08:08:31Z</time>
      </trkpt>
      <trkpt lat="44.54858" lon="-0.3462">
        <ele>69.83</ele>
        <time>2016-10-02T08:08:51Z</time>
      </trkpt>
      <trkpt lat="44.54859" lon="-0.34621">
        <ele>69.83</ele>
        <time>2016-10-02T08:08:53Z</time>
      </trkpt>
      <trkpt lat="44.5487" lon="-0.3464">
        <ele>69.35</ele>
        <time>2016-10-02T08:09:10Z</time>
      </trkpt>
      <trkpt lat="44.54884" lon="-0.34662">
        <ele>68.39</ele>
        <time>2016-10-02T08:09:30Z</time>
      </trkpt>
      <trkpt lat="44.54894" lon="-0.34682">
        <ele>66.95</ele>
        <time>2016-10-02T08:09:48Z</time>
      </trkpt>
      <trkpt lat="44.54903" lon="-0.34685">
        <ele>65.99</ele>
        <time>2016-10-02T08:10:03Z</time>
      </trkpt>
      <trkpt lat="44.54915" lon="-0.34676">
        <ele>63.58</ele>
        <time>2016-10-02T08:10:19Z</time>
      </trkpt>
      <trkpt lat="44.54927" lon="-0.34666">
        <ele>61.66</ele>
        <time>2016-10-02T08:10:34Z</time>
      </trkpt>
      <trkpt lat="44.5494" lon="-0.34653">
        <ele>59.74</ele>
        <time>2016-10-02T08:10:50Z</time>
      </trkpt>
      <trkpt lat="44.54956" lon="-0.34639">
        <ele>58.3</ele>
        <time>2016-10-02T08:11:09Z</time>
      </trkpt>
      <trkpt lat="44.54972" lon="-0.34625">
        <ele>57.34</ele>
        <time>2016-10-02T08:11:27Z</time>
      </trkpt>
      <trkpt lat="44.54987" lon="-0.3461">
        <ele>57.34</ele>
        <time>2016-10-02T08:11:45Z</time>
      </trkpt>
      <trkpt lat="44.55004" lon="-0.34597">
        <ele>57.34</ele>
        <time>2016-10-02T08:12:03Z</time>
      </trkpt>
      <trkpt lat="44.55019" lon="-0.34584">
        <ele>55.89</ele>
        <time>2016-10-02T08:12:21Z</time>
      </trkpt>
      <trkpt lat="44.55033" lon="-0.34571">
        <ele>55.41</ele>
        <time>2016-10-02T08:12:38Z</time>
      </trkpt>
      <trkpt lat="44.55051" lon="-0.34556">
        <ele>54.45</ele>
        <time>2016-10-02T08:12:56Z</time>
      </trkpt>
      <trkpt lat="44.5506" lon="-0.34548">
        <ele>53.49</ele>
        <time>2016-10-02T08:13:07Z</time>
      </trkpt>
      <trkpt lat="44.55061" lon="-0.34546">
        <ele>53.97</ele>
        <time>2016-10-02T08:13:09Z</time>
      </trkpt>
      <trkpt lat="44.55055" lon="-0.34521">
        <ele>52.05</ele>
        <time>2016-10-02T08:13:29Z</time>
      </trkpt>
      <trkpt lat="44.5505" lon="-0.34507">
        <ele>52.05</ele>
        <time>2016-10-02T08:13:42Z</time>
      </trkpt>
      <trkpt lat="44.55039" lon="-0.3448">
        <ele>52.05</ele>
        <time>2016-10-02T08:14:03Z</time>
      </trkpt>
      <trkpt lat="44.55032" lon="-0.34456">
        <ele>51.57</ele>
        <time>2016-10-02T08:14:22Z</time>
      </trkpt>
      <trkpt lat="44.55038" lon="-0.34449">
        <ele>50.61</ele>
        <time>2016-10-02T08:14:29Z</time>
      </trkpt>
      <trkpt lat="44.55057" lon="-0.34437">
        <ele>49.65</ele>
        <time>2016-10-02T08:14:47Z</time>
      </trkpt>
      <trkpt lat="44.55076" lon="-0.34423">
        <ele>48.68</ele>
        <time>2016-10-02T08:15:06Z</time>
      </trkpt>
      <trkpt lat="44.55091" lon="-0.34416">
        <ele>48.2</ele>
        <time>2016-10-02T08:15:21Z</time>
      </trkpt>
      <trkpt lat="44.55093" lon="-0.34417">
        <ele>48.2</ele>
        <time>2016-10-02T08:15:23Z</time>
      </trkpt>
      <trkpt lat="44.55106" lon="-0.3444">
        <ele>47.72</ele>
        <time>2016-10-02T08:15:43Z</time>
      </trkpt>
      <trkpt lat="44.55115" lon="-0.3446">
        <ele>47.72</ele>
        <time>2016-10-02T08:15:59Z</time>
      </trkpt>
      <trkpt lat="44.55122" lon="-0.34461">
        <ele>46.76</ele>
        <time>2016-10-02T08:16:07Z</time>
      </trkpt>
      <trkpt lat="44.55147" lon="-0.34447">
        <ele>46.28</ele>
        <time>2016-10-02T08:16:32Z</time>
      </trkpt>
      <trkpt lat="44.55167" lon="-0.34436">
        <ele>45.32</ele>
        <time>2016-10-02T08:16:51Z</time>
      </trkpt>
      <trkpt lat="44.55189" lon="-0.34422">
        <ele>44.84</ele>
        <time>2016-10-02T08:17:12Z</time>
      </trkpt>
      <trkpt lat="44.5521" lon="-0.34409">
        <ele>43.88</ele>
        <time>2016-10-02T08:17:32Z</time>
      </trkpt>
      <trkpt lat="44.55234" lon="-0.34397">
        <ele>43.4</ele>
        <time>2016-10-02T08:17:54Z</time>
      </trkpt>
      <trkpt lat="44.55255" lon="-0.34384">
        <ele>42.92</ele>
        <time>2016-10-02T08:18:14Z</time>
      </trkpt>
      <trkpt lat="44.55278" lon="-0.34371">
        <ele>42.92</ele>
        <time>2016-10-02T08:18:35Z</time>
      </trkpt>
      <trkpt lat="44.55297" lon="-0.3436">
        <ele>42.44</ele>
        <time>2016-10-02T08:18:53Z</time>
      </trkpt>
      <trkpt lat="44.55321" lon="-0.34347">
        <ele>41.95</ele>
        <time>2016-10-02T08:19:14Z</time>
      </trkpt>
      <trkpt lat="44.55343" lon="-0.34336">
        <ele>41.47</ele>
        <time>2016-10-02T08:19:35Z</time>
      </trkpt>
      <trkpt lat="44.55363" lon="-0.34326">
        <ele>40.51</ele>
        <time>2016-10-02T08:19:53Z</time>
      </trkpt>
      <trkpt lat="44.55385" lon="-0.34314">
        <ele>39.55</ele>
        <time>2016-10-02T08:20:13Z</time>
      </trkpt>
      <trkpt lat="44.55401" lon="-0.34302">
        <ele>39.07</ele>
        <time>2016-10-02T08:20:32Z</time>
      </trkpt>
      <trkpt lat="44.55409" lon="-0.34297">
        <ele>38.59</ele>
        <time>2016-10-02T08:20:46Z</time>
      </trkpt>
      <trkpt lat="44.55407" lon="-0.34295">
        <ele>38.59</ele>
        <time>2016-10-02T08:20:59Z</time>
      </trkpt>
      <trkpt lat="44.55409" lon="-0.34296">
        <ele>38.59</ele>
        <time>2016-10-02T08:21:10Z</time>
      </trkpt>
      <trkpt lat="44.55409" lon="-0.34298">
        <ele>39.55</ele>
        <time>2016-10-02T08:21:23Z</time>
      </trkpt>
      <trkpt lat="44.55407" lon="-0.34296">
        <ele>38.11</ele>
        <time>2016-10-02T08:21:38Z</time>
      </trkpt>
      <trkpt lat="44.55406" lon="-0.34295">
        <ele>37.63</ele>
        <time>2016-10-02T08:21:53Z</time>
      </trkpt>
      <trkpt lat="44.55406" lon="-0.34296">
        <ele>37.15</ele>
        <time>2016-10-02T08:22:14Z</time>
      </trkpt>
      <trkpt lat="44.55406" lon="-0.34296">
        <ele>37.15</ele>
        <time>2016-10-02T08:22:49Z</time>
      </trkpt>
      <trkpt lat="44.55406" lon="-0.34295">
        <ele>37.15</ele>
        <time>2016-10-02T08:23:21Z</time>
      </trkpt>
      <trkpt lat="44.55406" lon="-0.34295">
        <ele>36.67</ele>
        <time>2016-10-02T08:23:53Z</time>
      </trkpt>
      <trkpt lat="44.55405" lon="-0.34296">
        <ele>36.67</ele>
        <time>2016-10-02T08:24:27Z</time>
      </trkpt>
      <trkpt lat="44.55406" lon="-0.34295">
        <ele>36.67</ele>
        <time>2016-10-02T08:25:04Z</time>
      </trkpt>
      <trkpt lat="44.55406" lon="-0.34296">
        <ele>36.67</ele>
        <time>2016-10-02T08:25:42Z</time>
      </trkpt>
      <trkpt lat="44.55407" lon="-0.34295">
        <ele>36.67</ele>
        <time>2016-10-02T08:26:26Z</time>
      </trkpt>
      <trkpt lat="44.55406" lon="-0.34295">
        <ele>36.67</ele>
        <time>2016-10-02T08:26:42Z</time>
      </trkpt>
      <trkpt lat="44.55406" lon="-0.34298">
        <ele>36.67</ele>
        <time>2016-10-02T08:27:09Z</time>
      </trkpt>
      <trkpt lat="44.5541" lon="-0.34294">
        <ele>36.67</ele>
        <time>2016-10-02T08:27:20Z</time>
      </trkpt>
      <trkpt lat="44.5541" lon="-0.34294">
        <ele>36.67</ele>
        <time>2016-10-02T08:27:21Z</time>
      </trkpt>
      <trkpt lat="44.55407" lon="-0.34294">
        <ele>36.67</ele>
        <time>2016-10-02T08:27:29Z</time>
      </trkpt>
      <trkpt lat="44.55407" lon="-0.34293">
        <ele>36.19</ele>
        <time>2016-10-02T08:27:45Z</time>
      </trkpt>
      <trkpt lat="44.55408" lon="-0.34294">
        <ele>36.19</ele>
        <time>2016-10-02T08:28:01Z</time>
      </trkpt>
      <trkpt lat="44.55408" lon="-0.34294">
        <ele>36.19</ele>
        <time>2016-10-02T08:28:16Z</time>
      </trkpt>
      <trkpt lat="44.55407" lon="-0.34295">
        <ele>36.19</ele>
        <time>2016-10-02T08:28:32Z</time>
      </trkpt>
      <trkpt lat="44.55407" lon="-0.34294">
        <ele>35.71</ele>
        <time>2016-10-02T08:28:58Z</time>
      </trkpt>
      <trkpt lat="44.55407" lon="-0.34296">
        <ele>34.26</ele>
        <time>2016-10-02T08:29:13Z</time>
      </trkpt>
      <trkpt lat="44.55407" lon="-0.34296">
        <ele>37.63</ele>
        <time>2016-10-02T08:29:14Z</time>
      </trkpt>
      <trkpt lat="44.55406" lon="-0.34296">
        <ele>36.67</ele>
        <time>2016-10-02T08:29:35Z</time>
      </trkpt>
      <trkpt lat="44.55407" lon="-0.34295">
        <ele>36.67</ele>
        <time>2016-10-02T08:30:02Z</time>
      </trkpt>
      <trkpt lat="44.55406" lon="-0.34292">
        <ele>36.19</ele>
        <time>2016-10-02T08:30:17Z</time>
      </trkpt>
      <trkpt lat="44.55408" lon="-0.34296">
        <ele>35.71</ele>
        <time>2016-10-02T08:30:28Z</time>
      </trkpt>
      <trkpt lat="44.55408" lon="-0.34296">
        <ele>35.71</ele>
        <time>2016-10-02T08:30:51Z</time>
      </trkpt>
      <trkpt lat="44.55408" lon="-0.34296">
        <ele>35.71</ele>
        <time>2016-10-02T08:31:07Z</time>
      </trkpt>
      <trkpt lat="44.55406" lon="-0.34295">
        <ele>35.71</ele>
        <time>2016-10-02T08:31:17Z</time>
      </trkpt>
      <trkpt lat="44.55406" lon="-0.34295">
        <ele>35.23</ele>
        <time>2016-10-02T08:31:39Z</time>
      </trkpt>
      <trkpt lat="44.55407" lon="-0.34295">
        <ele>36.67</ele>
        <time>2016-10-02T08:31:49Z</time>
      </trkpt>
      <trkpt lat="44.55406" lon="-0.34291">
        <ele>36.67</ele>
        <time>2016-10-02T08:32:14Z</time>
      </trkpt>
      <trkpt lat="44.55408" lon="-0.34295">
        <ele>36.19</ele>
        <time>2016-10-02T08:32:33Z</time>
      </trkpt>
      <trkpt lat="44.5541" lon="-0.34297">
        <ele>37.15</ele>
        <time>2016-10-02T08:32:53Z</time>
      </trkpt>
      <trkpt lat="44.55409" lon="-0.34295">
        <ele>35.71</ele>
        <time>2016-10-02T08:33:06Z</time>
      </trkpt>
      <trkpt lat="44.55409" lon="-0.34294">
        <ele>35.71</ele>
        <time>2016-10-02T08:33:28Z</time>
      </trkpt>
      <trkpt lat="44.55409" lon="-0.34298">
        <ele>35.71</ele>
        <time>2016-10-02T08:33:43Z</time>
      </trkpt>
      <trkpt lat="44.55411" lon="-0.34297">
        <ele>35.23</ele>
        <time>2016-10-02T08:34:07Z</time>
      </trkpt>
      <trkpt lat="44.55411" lon="-0.34299">
        <ele>34.74</ele>
        <time>2016-10-02T08:34:24Z</time>
      </trkpt>
      <trkpt lat="44.55415" lon="-0.34304">
        <ele>34.74</ele>
        <time>2016-10-02T08:34:35Z</time>
      </trkpt>
      <trkpt lat="44.55428" lon="-0.34319">
        <ele>33.78</ele>
        <time>2016-10-02T08:34:53Z</time>
      </trkpt>
      <trkpt lat="44.55442" lon="-0.34342">
        <ele>33.3</ele>
        <time>2016-10-02T08:35:12Z</time>
      </trkpt>
      <trkpt lat="44.55458" lon="-0.34365">
        <ele>32.82</ele>
        <time>2016-10-02T08:35:32Z</time>
      </trkpt>
      <trkpt lat="44.55467" lon="-0.34384">
        <ele>32.82</ele>
        <time>2016-10-02T08:35:48Z</time>
      </trkpt>
      <trkpt lat="44.55478" lon="-0.34407">
        <ele>31.86</ele>
        <time>2016-10-02T08:36:05Z</time>
      </trkpt>
      <trkpt lat="44.55487" lon="-0.34426">
        <ele>31.38</ele>
        <time>2016-10-02T08:36:20Z</time>
      </trkpt>
      <trkpt lat="44.55497" lon="-0.34448">
        <ele>30.9</ele>
        <time>2016-10-02T08:36:37Z</time>
      </trkpt>
      <trkpt lat="44.55505" lon="-0.34473">
        <ele>30.42</ele>
        <time>2016-10-02T08:36:54Z</time>
      </trkpt>
      <trkpt lat="44.55517" lon="-0.34484">
        <ele>30.42</ele>
        <time>2016-10-02T08:37:09Z</time>
      </trkpt>
      <trkpt lat="44.55525" lon="-0.34481">
        <ele>29.46</ele>
        <time>2016-10-02T08:37:23Z</time>
      </trkpt>
      <trkpt lat="44.55526" lon="-0.34484">
        <ele>29.46</ele>
        <time>2016-10-02T08:37:31Z</time>
      </trkpt>
      <trkpt lat="44.55531" lon="-0.34482">
        <ele>29.46</ele>
        <time>2016-10-02T08:37:46Z</time>
      </trkpt>
      <trkpt lat="44.55549" lon="-0.3447">
        <ele>29.46</ele>
        <time>2016-10-02T08:38:09Z</time>
      </trkpt>
      <trkpt lat="44.5557" lon="-0.34455">
        <ele>29.46</ele>
        <time>2016-10-02T08:38:33Z</time>
      </trkpt>
      <trkpt lat="44.55592" lon="-0.34439">
        <ele>29.46</ele>
        <time>2016-10-02T08:38:56Z</time>
      </trkpt>
      <trkpt lat="44.55609" lon="-0.34427">
        <ele>29.46</ele>
        <time>2016-10-02T08:39:13Z</time>
      </trkpt>
      <trkpt lat="44.55633" lon="-0.3441">
        <ele>28.98</ele>
        <time>2016-10-02T08:39:37Z</time>
      </trkpt>
      <trkpt lat="44.55653" lon="-0.34397">
        <ele>28.02</ele>
        <time>2016-10-02T08:39:59Z</time>
      </trkpt>
      <trkpt lat="44.55678" lon="-0.34379">
        <ele>27.05</ele>
        <time>2016-10-02T08:40:24Z</time>
      </trkpt>
      <trkpt lat="44.55703" lon="-0.3436">
        <ele>26.09</ele>
        <time>2016-10-02T08:40:50Z</time>
      </trkpt>
      <trkpt lat="44.55704" lon="-0.34359">
        <ele>26.09</ele>
        <time>2016-10-02T08:40:51Z</time>
      </trkpt>
      <trkpt lat="44.55705" lon="-0.34358">
        <ele>27.53</ele>
        <time>2016-10-02T08:40:54Z</time>
      </trkpt>
      <trkpt lat="44.55705" lon="-0.34358">
        <ele>27.05</ele>
        <time>2016-10-02T08:40:56Z</time>
      </trkpt>
      <trkpt lat="44.55723" lon="-0.3435">
        <ele>26.09</ele>
        <time>2016-10-02T08:41:16Z</time>
      </trkpt>
      <trkpt lat="44.55736" lon="-0.3434">
        <ele>25.13</ele>
        <time>2016-10-02T08:41:39Z</time>
      </trkpt>
      <trkpt lat="44.55767" lon="-0.3431">
        <ele>24.17</ele>
        <time>2016-10-02T08:41:59Z</time>
      </trkpt>
      <trkpt lat="44.55783" lon="-0.3429">
        <ele>25.13</ele>
        <time>2016-10-02T08:42:18Z</time>
      </trkpt>
      <trkpt lat="44.55788" lon="-0.34287">
        <ele>25.13</ele>
        <time>2016-10-02T08:42:23Z</time>
      </trkpt>
      <trkpt lat="44.55809" lon="-0.34272">
        <ele>24.17</ele>
        <time>2016-10-02T08:42:44Z</time>
      </trkpt>
      <trkpt lat="44.55828" lon="-0.34255">
        <ele>23.69</ele>
        <time>2016-10-02T08:43:04Z</time>
      </trkpt>
      <trkpt lat="44.55845" lon="-0.34244">
        <ele>23.69</ele>
        <time>2016-10-02T08:43:26Z</time>
      </trkpt>
      <trkpt lat="44.55846" lon="-0.34242">
        <ele>24.17</ele>
        <time>2016-10-02T08:43:40Z</time>
      </trkpt>
      <trkpt lat="44.55863" lon="-0.34228">
        <ele>22.73</ele>
        <time>2016-10-02T08:43:57Z</time>
      </trkpt>
      <trkpt lat="44.55871" lon="-0.34219">
        <ele>22.73</ele>
        <time>2016-10-02T08:44:08Z</time>
      </trkpt>
      <trkpt lat="44.55881" lon="-0.34211">
        <ele>22.73</ele>
        <time>2016-10-02T08:44:18Z</time>
      </trkpt>
      <trkpt lat="44.55884" lon="-0.34208">
        <ele>22.73</ele>
        <time>2016-10-02T08:44:23Z</time>
      </trkpt>
      <trkpt lat="44.55903" lon="-0.34191">
        <ele>21.77</ele>
        <time>2016-10-02T08:44:44Z</time>
      </trkpt>
      <trkpt lat="44.55919" lon="-0.34176">
        <ele>21.77</ele>
        <time>2016-10-02T08:45:04Z</time>
      </trkpt>
      <trkpt lat="44.55923" lon="-0.3417">
        <ele>21.77</ele>
        <time>2016-10-02T08:45:10Z</time>
      </trkpt>
      <trkpt lat="44.55938" lon="-0.3415">
        <ele>21.29</ele>
        <time>2016-10-02T08:45:31Z</time>
      </trkpt>
      <trkpt lat="44.55953" lon="-0.34132">
        <ele>21.29</ele>
        <time>2016-10-02T08:45:50Z</time>
      </trkpt>
      <trkpt lat="44.55969" lon="-0.34113">
        <ele>21.29</ele>
        <time>2016-10-02T08:46:09Z</time>
      </trkpt>
      <trkpt lat="44.55983" lon="-0.34092">
        <ele>20.81</ele>
        <time>2016-10-02T08:46:29Z</time>
      </trkpt>
      <trkpt lat="44.55999" lon="-0.3407">
        <ele>20.81</ele>
        <time>2016-10-02T08:46:49Z</time>
      </trkpt>
      <trkpt lat="44.56005" lon="-0.34061">
        <ele>19.84</ele>
        <time>2016-10-02T08:47:06Z</time>
      </trkpt>
      <trkpt lat="44.56005" lon="-0.34062">
        <ele>19.84</ele>
        <time>2016-10-02T08:47:07Z</time>
      </trkpt>
      <trkpt lat="44.56002" lon="-0.34078">
        <ele>20.81</ele>
        <time>2016-10-02T08:47:23Z</time>
      </trkpt>
      <trkpt lat="44.5601" lon="-0.34089">
        <ele>21.77</ele>
        <time>2016-10-02T08:47:34Z</time>
      </trkpt>
      <trkpt lat="44.56015" lon="-0.34095">
        <ele>20.32</ele>
        <time>2016-10-02T08:47:40Z</time>
      </trkpt>
      <trkpt lat="44.5603" lon="-0.34117">
        <ele>19.84</ele>
        <time>2016-10-02T08:48:00Z</time>
      </trkpt>
      <trkpt lat="44.56044" lon="-0.34134">
        <ele>19.36</ele>
        <time>2016-10-02T08:48:18Z</time>
      </trkpt>
      <trkpt lat="44.56063" lon="-0.34158">
        <ele>19.36</ele>
        <time>2016-10-02T08:48:40Z</time>
      </trkpt>
      <trkpt lat="44.56075" lon="-0.34173">
        <ele>20.81</ele>
        <time>2016-10-02T08:48:55Z</time>
      </trkpt>
      <trkpt lat="44.56077" lon="-0.34175">
        <ele>18.4</ele>
        <time>2016-10-02T08:48:57Z</time>
      </trkpt>
      <trkpt lat="44.5608" lon="-0.34178">
        <ele>19.36</ele>
        <time>2016-10-02T08:49:01Z</time>
      </trkpt>
      <trkpt lat="44.56095" lon="-0.34198">
        <ele>19.36</ele>
        <time>2016-10-02T08:49:21Z</time>
      </trkpt>
      <trkpt lat="44.56109" lon="-0.34215">
        <ele>18.4</ele>
        <time>2016-10-02T08:49:38Z</time>
      </trkpt>
      <trkpt lat="44.56123" lon="-0.34232">
        <ele>17.92</ele>
        <time>2016-10-02T08:49:56Z</time>
      </trkpt>
      <trkpt lat="44.56137" lon="-0.34252">
        <ele>17.92</ele>
        <time>2016-10-02T08:50:14Z</time>
      </trkpt>
      <trkpt lat="44.5615" lon="-0.34267">
        <ele>18.88</ele>
        <time>2016-10-02T08:50:30Z</time>
      </trkpt>
      <trkpt lat="44.56153" lon="-0.34272">
        <ele>17.44</ele>
        <time>2016-10-02T08:50:34Z</time>
      </trkpt>
      <trkpt lat="44.56165" lon="-0.34292">
        <ele>16.96</ele>
        <time>2016-10-02T08:50:52Z</time>
      </trkpt>
      <trkpt lat="44.56181" lon="-0.34311">
        <ele>16.96</ele>
        <time>2016-10-02T08:51:11Z</time>
      </trkpt>
      <trkpt lat="44.56198" lon="-0.34331">
        <ele>16.96</ele>
        <time>2016-10-02T08:51:32Z</time>
      </trkpt>
      <trkpt lat="44.56213" lon="-0.3435">
        <ele>16.48</ele>
        <time>2016-10-02T08:51:51Z</time>
      </trkpt>
      <trkpt lat="44.56225" lon="-0.34369">
        <ele>16.48</ele>
        <time>2016-10-02T08:52:09Z</time>
      </trkpt>
      <trkpt lat="44.56225" lon="-0.34369">
        <ele>17.92</ele>
        <time>2016-10-02T08:52:11Z</time>
      </trkpt>
      <trkpt lat="44.56223" lon="-0.34368">
        <ele>16.48</ele>
        <time>2016-10-02T08:52:14Z</time>
      </trkpt>
      <trkpt lat="44.56224" lon="-0.34367">
        <ele>16.96</ele>
        <time>2016-10-02T08:52:31Z</time>
      </trkpt>
      <trkpt lat="44.56228" lon="-0.34374">
        <ele>16.48</ele>
        <time>2016-10-02T08:52:44Z</time>
      </trkpt>
      <trkpt lat="44.56228" lon="-0.34382">
        <ele>16.48</ele>
        <time>2016-10-02T08:52:50Z</time>
      </trkpt>
      <trkpt lat="44.56222" lon="-0.34396">
        <ele>16.48</ele>
        <time>2016-10-02T08:53:02Z</time>
      </trkpt>
      <trkpt lat="44.56216" lon="-0.34409">
        <ele>16.48</ele>
        <time>2016-10-02T08:53:13Z</time>
      </trkpt>
      <trkpt lat="44.56215" lon="-0.34413">
        <ele>16.48</ele>
        <time>2016-10-02T08:53:16Z</time>
      </trkpt>
      <trkpt lat="44.56206" lon="-0.34433">
        <ele>16.48</ele>
        <time>2016-10-02T08:53:32Z</time>
      </trkpt>
      <trkpt lat="44.56206" lon="-0.34435">
        <ele>16.48</ele>
        <time>2016-10-02T08:53:33Z</time>
      </trkpt>
      <trkpt lat="44.56207" lon="-0.34441">
        <ele>16.48</ele>
        <time>2016-10-02T08:53:38Z</time>
      </trkpt>
      <trkpt lat="44.5622" lon="-0.34457">
        <ele>16.48</ele>
        <time>2016-10-02T08:53:53Z</time>
      </trkpt>
      <trkpt lat="44.56222" lon="-0.34458">
        <ele>16.48</ele>
        <time>2016-10-02T08:53:56Z</time>
      </trkpt>
      <trkpt lat="44.56232" lon="-0.3447">
        <ele>17.44</ele>
        <time>2016-10-02T08:54:08Z</time>
      </trkpt>
      <trkpt lat="44.56249" lon="-0.3449">
        <ele>17.44</ele>
        <time>2016-10-02T08:54:28Z</time>
      </trkpt>
      <trkpt lat="44.56264" lon="-0.34506">
        <ele>17.44</ele>
        <time>2016-10-02T08:54:45Z</time>
      </trkpt>
      <trkpt lat="44.5628" lon="-0.34521">
        <ele>17.44</ele>
        <time>2016-10-02T08:55:02Z</time>
      </trkpt>
      <trkpt lat="44.56293" lon="-0.34533">
        <ele>16.48</ele>
        <time>2016-10-02T08:55:17Z</time>
      </trkpt>
      <trkpt lat="44.56307" lon="-0.34544">
        <ele>16</ele>
        <time>2016-10-02T08:55:32Z</time>
      </trkpt>
      <trkpt lat="44.56324" lon="-0.3456">
        <ele>16</ele>
        <time>2016-10-02T08:55:50Z</time>
      </trkpt>
      <trkpt lat="44.56337" lon="-0.34575">
        <ele>15.52</ele>
        <time>2016-10-02T08:56:06Z</time>
      </trkpt>
      <trkpt lat="44.56345" lon="-0.34582">
        <ele>15.52</ele>
        <time>2016-10-02T08:56:16Z</time>
      </trkpt>
      <trkpt lat="44.56357" lon="-0.34587">
        <ele>15.52</ele>
        <time>2016-10-02T08:56:29Z</time>
      </trkpt>
      <trkpt lat="44.56371" lon="-0.34567">
        <ele>15.52</ele>
        <time>2016-10-02T08:56:48Z</time>
      </trkpt>
      <trkpt lat="44.56378" lon="-0.34555">
        <ele>15.04</ele>
        <time>2016-10-02T08:56:58Z</time>
      </trkpt>
      <trkpt lat="44.56387" lon="-0.34555">
        <ele>15.04</ele>
        <time>2016-10-02T08:57:06Z</time>
      </trkpt>
      <trkpt lat="44.564" lon="-0.34567">
        <ele>14.56</ele>
        <time>2016-10-02T08:57:21Z</time>
      </trkpt>
      <trkpt lat="44.5642" lon="-0.34562">
        <ele>13.6</ele>
        <time>2016-10-02T08:57:39Z</time>
      </trkpt>
      <trkpt lat="44.56439" lon="-0.34556">
        <ele>12.63</ele>
        <time>2016-10-02T08:57:56Z</time>
      </trkpt>
      <trkpt lat="44.56452" lon="-0.34538">
        <ele>12.15</ele>
        <time>2016-10-02T08:58:11Z</time>
      </trkpt>
      <trkpt lat="44.56454" lon="-0.34534">
        <ele>12.15</ele>
        <time>2016-10-02T08:58:14Z</time>
      </trkpt>
      <trkpt lat="44.56455" lon="-0.3453">
        <ele>11.67</ele>
        <time>2016-10-02T08:58:18Z</time>
      </trkpt>
      <trkpt lat="44.56462" lon="-0.34519">
        <ele>11.67</ele>
        <time>2016-10-02T08:58:29Z</time>
      </trkpt>
      <trkpt lat="44.56467" lon="-0.34515">
        <ele>11.19</ele>
        <time>2016-10-02T08:58:34Z</time>
      </trkpt>
      <trkpt lat="44.56483" lon="-0.34496">
        <ele>10.71</ele>
        <time>2016-10-02T08:58:53Z</time>
      </trkpt>
      <trkpt lat="44.56498" lon="-0.34473">
        <ele>10.71</ele>
        <time>2016-10-02T08:59:12Z</time>
      </trkpt>
      <trkpt lat="44.56512" lon="-0.34448">
        <ele>10.71</ele>
        <time>2016-10-02T08:59:31Z</time>
      </trkpt>
      <trkpt lat="44.56524" lon="-0.34426">
        <ele>10.23</ele>
        <time>2016-10-02T08:59:48Z</time>
      </trkpt>
      <trkpt lat="44.56537" lon="-0.34399">
        <ele>10.23</ele>
        <time>2016-10-02T09:00:08Z</time>
      </trkpt>
      <trkpt lat="44.56549" lon="-0.34375">
        <ele>10.23</ele>
        <time>2016-10-02T09:00:25Z</time>
      </trkpt>
      <trkpt lat="44.5656" lon="-0.34349">
        <ele>10.23</ele>
        <time>2016-10-02T09:00:44Z</time>
      </trkpt>
      <trkpt lat="44.56572" lon="-0.34323">
        <ele>10.23</ele>
        <time>2016-10-02T09:01:03Z</time>
      </trkpt>
      <trkpt lat="44.56582" lon="-0.343">
        <ele>10.23</ele>
        <time>2016-10-02T09:01:20Z</time>
      </trkpt>
      <trkpt lat="44.56583" lon="-0.34302">
        <ele>10.23</ele>
        <time>2016-10-02T09:01:25Z</time>
      </trkpt>
      <trkpt lat="44.56577" lon="-0.34315">
        <ele>9.75</ele>
        <time>2016-10-02T09:01:42Z</time>
      </trkpt>
      <trkpt lat="44.56578" lon="-0.3431">
        <ele>9.75</ele>
        <time>2016-10-02T09:01:58Z</time>
      </trkpt>
      <trkpt lat="44.56585" lon="-0.34294">
        <ele>9.75</ele>
        <time>2016-10-02T09:02:14Z</time>
      </trkpt>
      <trkpt lat="44.56591" lon="-0.34281">
        <ele>9.75</ele>
        <time>2016-10-02T09:02:29Z</time>
      </trkpt>
      <trkpt lat="44.56597" lon="-0.34265">
        <ele>10.71</ele>
        <time>2016-10-02T09:02:43Z</time>
      </trkpt>
      <trkpt lat="44.56597" lon="-0.34264">
        <ele>10.71</ele>
        <time>2016-10-02T09:02:44Z</time>
      </trkpt>
      <trkpt lat="44.56606" lon="-0.34235">
        <ele>12.15</ele>
        <time>2016-10-02T09:03:04Z</time>
      </trkpt>
      <trkpt lat="44.56617" lon="-0.34211">
        <ele>12.63</ele>
        <time>2016-10-02T09:03:23Z</time>
      </trkpt>
      <trkpt lat="44.56631" lon="-0.34189">
        <ele>14.08</ele>
        <time>2016-10-02T09:03:42Z</time>
      </trkpt>
      <trkpt lat="44.56643" lon="-0.3417">
        <ele>14.56</ele>
        <time>2016-10-02T09:03:57Z</time>
      </trkpt>
      <trkpt lat="44.56651" lon="-0.34157">
        <ele>15.04</ele>
        <time>2016-10-02T09:04:09Z</time>
      </trkpt>
      <trkpt lat="44.56652" lon="-0.34156">
        <ele>15.04</ele>
        <time>2016-10-02T09:04:10Z</time>
      </trkpt>
      <trkpt lat="44.56652" lon="-0.34154">
        <ele>15.04</ele>
        <time>2016-10-02T09:04:12Z</time>
      </trkpt>
      <trkpt lat="44.56656" lon="-0.34148">
        <ele>15.04</ele>
        <time>2016-10-02T09:04:18Z</time>
      </trkpt>
      <trkpt lat="44.56666" lon="-0.34132">
        <ele>15.04</ele>
        <time>2016-10-02T09:04:34Z</time>
      </trkpt>
      <trkpt lat="44.56679" lon="-0.34113">
        <ele>14.56</ele>
        <time>2016-10-02T09:04:51Z</time>
      </trkpt>
      <trkpt lat="44.56692" lon="-0.34091">
        <ele>15.04</ele>
        <time>2016-10-02T09:05:08Z</time>
      </trkpt>
      <trkpt lat="44.56708" lon="-0.34071">
        <ele>15.04</ele>
        <time>2016-10-02T09:05:27Z</time>
      </trkpt>
      <trkpt lat="44.56727" lon="-0.34054">
        <ele>15.04</ele>
        <time>2016-10-02T09:05:46Z</time>
      </trkpt>
      <trkpt lat="44.56748" lon="-0.34043">
        <ele>15.04</ele>
        <time>2016-10-02T09:06:07Z</time>
      </trkpt>
      <trkpt lat="44.56769" lon="-0.34034">
        <ele>15.04</ele>
        <time>2016-10-02T09:06:27Z</time>
      </trkpt>
      <trkpt lat="44.5679" lon="-0.34025">
        <ele>15.04</ele>
        <time>2016-10-02T09:06:47Z</time>
      </trkpt>
      <trkpt lat="44.56804" lon="-0.3402">
        <ele>15.04</ele>
        <time>2016-10-02T09:07:04Z</time>
      </trkpt>
      <trkpt lat="44.56805" lon="-0.34019">
        <ele>15.04</ele>
        <time>2016-10-02T09:07:24Z</time>
      </trkpt>
      <trkpt lat="44.56807" lon="-0.34013">
        <ele>15.04</ele>
        <time>2016-10-02T09:07:39Z</time>
      </trkpt>
      <trkpt lat="44.56809" lon="-0.33999">
        <ele>15.04</ele>
        <time>2016-10-02T09:07:54Z</time>
      </trkpt>
      <trkpt lat="44.56808" lon="-0.33989">
        <ele>15.04</ele>
        <time>2016-10-02T09:08:02Z</time>
      </trkpt>
      <trkpt lat="44.56801" lon="-0.3396">
        <ele>15.04</ele>
        <time>2016-10-02T09:08:23Z</time>
      </trkpt>
      <trkpt lat="44.56796" lon="-0.33925">
        <ele>15.04</ele>
        <time>2016-10-02T09:08:45Z</time>
      </trkpt>
      <trkpt lat="44.5679" lon="-0.33891">
        <ele>14.08</ele>
        <time>2016-10-02T09:09:07Z</time>
      </trkpt>
      <trkpt lat="44.56784" lon="-0.33858">
        <ele>13.12</ele>
        <time>2016-10-02T09:09:28Z</time>
      </trkpt>
      <trkpt lat="44.56778" lon="-0.33828">
        <ele>13.12</ele>
        <time>2016-10-02T09:09:48Z</time>
      </trkpt>
      <trkpt lat="44.56772" lon="-0.33798">
        <ele>13.12</ele>
        <time>2016-10-02T09:10:09Z</time>
      </trkpt>
      <trkpt lat="44.56784" lon="-0.33776">
        <ele>13.12</ele>
        <time>2016-10-02T09:10:27Z</time>
      </trkpt>
      <trkpt lat="44.56802" lon="-0.33758">
        <ele>13.12</ele>
        <time>2016-10-02T09:10:46Z</time>
      </trkpt>
      <trkpt lat="44.56813" lon="-0.33735">
        <ele>13.12</ele>
        <time>2016-10-02T09:11:04Z</time>
      </trkpt>
      <trkpt lat="44.56805" lon="-0.33713">
        <ele>13.12</ele>
        <time>2016-10-02T09:11:22Z</time>
      </trkpt>
      <trkpt lat="44.56801" lon="-0.33704">
        <ele>14.08</ele>
        <time>2016-10-02T09:11:29Z</time>
      </trkpt>
      <trkpt lat="44.56788" lon="-0.33679">
        <ele>15.04</ele>
        <time>2016-10-02T09:11:51Z</time>
      </trkpt>
      <trkpt lat="44.56773" lon="-0.33655">
        <ele>15.04</ele>
        <time>2016-10-02T09:12:12Z</time>
      </trkpt>
      <trkpt lat="44.56759" lon="-0.33631">
        <ele>16</ele>
        <time>2016-10-02T09:12:31Z</time>
      </trkpt>
      <trkpt lat="44.56748" lon="-0.33609">
        <ele>16</ele>
        <time>2016-10-02T09:12:50Z</time>
      </trkpt>
      <trkpt lat="44.56749" lon="-0.33605">
        <ele>16</ele>
        <time>2016-10-02T09:12:53Z</time>
      </trkpt>
      <trkpt lat="44.56761" lon="-0.33577">
        <ele>16</ele>
        <time>2016-10-02T09:13:15Z</time>
      </trkpt>
      <trkpt lat="44.56771" lon="-0.33554">
        <ele>16</ele>
        <time>2016-10-02T09:13:32Z</time>
      </trkpt>
      <trkpt lat="44.56786" lon="-0.33527">
        <ele>14.56</ele>
        <time>2016-10-02T09:13:54Z</time>
      </trkpt>
      <trkpt lat="44.56792" lon="-0.33512">
        <ele>14.56</ele>
        <time>2016-10-02T09:14:09Z</time>
      </trkpt>
      <trkpt lat="44.56803" lon="-0.33487">
        <ele>14.56</ele>
        <time>2016-10-02T09:14:27Z</time>
      </trkpt>
      <trkpt lat="44.56814" lon="-0.33461">
        <ele>14.56</ele>
        <time>2016-10-02T09:14:46Z</time>
      </trkpt>
      <trkpt lat="44.56817" lon="-0.33449">
        <ele>14.56</ele>
        <time>2016-10-02T09:14:54Z</time>
      </trkpt>
      <trkpt lat="44.56817" lon="-0.33446">
        <ele>14.56</ele>
        <time>2016-10-02T09:14:56Z</time>
      </trkpt>
      <trkpt lat="44.56825" lon="-0.33413">
        <ele>14.56</ele>
        <time>2016-10-02T09:15:19Z</time>
      </trkpt>
      <trkpt lat="44.56834" lon="-0.33388">
        <ele>14.56</ele>
        <time>2016-10-02T09:15:38Z</time>
      </trkpt>
      <trkpt lat="44.56839" lon="-0.33364">
        <ele>14.56</ele>
        <time>2016-10-02T09:15:55Z</time>
      </trkpt>
      <trkpt lat="44.56844" lon="-0.33346">
        <ele>14.56</ele>
        <time>2016-10-02T09:16:09Z</time>
      </trkpt>
      <trkpt lat="44.56847" lon="-0.33343">
        <ele>14.56</ele>
        <time>2016-10-02T09:16:14Z</time>
      </trkpt>
      <trkpt lat="44.56864" lon="-0.33349">
        <ele>14.56</ele>
        <time>2016-10-02T09:16:32Z</time>
      </trkpt>
      <trkpt lat="44.56881" lon="-0.33357">
        <ele>14.08</ele>
        <time>2016-10-02T09:16:50Z</time>
      </trkpt>
      <trkpt lat="44.56894" lon="-0.33365">
        <ele>12.15</ele>
        <time>2016-10-02T09:17:07Z</time>
      </trkpt>
      <trkpt lat="44.56906" lon="-0.3337">
        <ele>9.75</ele>
        <time>2016-10-02T09:17:25Z</time>
      </trkpt>
      <trkpt lat="44.56918" lon="-0.33363">
        <ele>8.31</ele>
        <time>2016-10-02T09:17:40Z</time>
      </trkpt>
      <trkpt lat="44.56927" lon="-0.33343">
        <ele>8.31</ele>
        <time>2016-10-02T09:17:57Z</time>
      </trkpt>
      <trkpt lat="44.56933" lon="-0.33328">
        <ele>8.79</ele>
        <time>2016-10-02T09:18:14Z</time>
      </trkpt>
      <trkpt lat="44.56939" lon="-0.33307">
        <ele>8.79</ele>
        <time>2016-10-02T09:18:31Z</time>
      </trkpt>
      <trkpt lat="44.56944" lon="-0.3329">
        <ele>8.79</ele>
        <time>2016-10-02T09:18:41Z</time>
      </trkpt>
      <trkpt lat="44.56948" lon="-0.33264">
        <ele>8.31</ele>
        <time>2016-10-02T09:19:00Z</time>
      </trkpt>
      <trkpt lat="44.56953" lon="-0.33252">
        <ele>8.31</ele>
        <time>2016-10-02T09:19:15Z</time>
      </trkpt>
      <trkpt lat="44.56956" lon="-0.33243">
        <ele>8.31</ele>
        <time>2016-10-02T09:19:32Z</time>
      </trkpt>
      <trkpt lat="44.56959" lon="-0.33242">
        <ele>9.75</ele>
        <time>2016-10-02T09:19:57Z</time>
      </trkpt>
      <trkpt lat="44.56967" lon="-0.3324">
        <ele>9.75</ele>
        <time>2016-10-02T09:20:17Z</time>
      </trkpt>
      <trkpt lat="44.56972" lon="-0.33245">
        <ele>10.23</ele>
        <time>2016-10-02T09:20:31Z</time>
      </trkpt>
      <trkpt lat="44.5698" lon="-0.33262">
        <ele>10.23</ele>
        <time>2016-10-02T09:20:48Z</time>
      </trkpt>
      <trkpt lat="44.56989" lon="-0.33271">
        <ele>10.23</ele>
        <time>2016-10-02T09:21:04Z</time>
      </trkpt>
      <trkpt lat="44.56996" lon="-0.33272">
        <ele>10.23</ele>
        <time>2016-10-02T09:21:21Z</time>
      </trkpt>
      <trkpt lat="44.56997" lon="-0.33272">
        <ele>10.71</ele>
        <time>2016-10-02T09:22:01Z</time>
      </trkpt>
      <trkpt lat="44.56995" lon="-0.33273">
        <ele>11.19</ele>
        <time>2016-10-02T09:22:21Z</time>
      </trkpt>
      <trkpt lat="44.5699" lon="-0.33279">
        <ele>11.19</ele>
        <time>2016-10-02T09:22:43Z</time>
      </trkpt>
      <trkpt lat="44.56994" lon="-0.33282">
        <ele>11.19</ele>
        <time>2016-10-02T09:23:05Z</time>
      </trkpt>
      <trkpt lat="44.57002" lon="-0.33292">
        <ele>11.67</ele>
        <time>2016-10-02T09:23:22Z</time>
      </trkpt>
      <trkpt lat="44.57004" lon="-0.33304">
        <ele>11.67</ele>
        <time>2016-10-02T09:23:39Z</time>
      </trkpt>
      <trkpt lat="44.57009" lon="-0.33313">
        <ele>11.67</ele>
        <time>2016-10-02T09:23:56Z</time>
      </trkpt>
      <trkpt lat="44.57016" lon="-0.33326">
        <ele>12.15</ele>
        <time>2016-10-02T09:24:19Z</time>
      </trkpt>
      <trkpt lat="44.57019" lon="-0.3335">
        <ele>12.15</ele>
        <time>2016-10-02T09:24:35Z</time>
      </trkpt>
      <trkpt lat="44.57024" lon="-0.3336">
        <ele>12.15</ele>
        <time>2016-10-02T09:24:44Z</time>
      </trkpt>
      <trkpt lat="44.57032" lon="-0.33385">
        <ele>12.15</ele>
        <time>2016-10-02T09:25:00Z</time>
      </trkpt>
      <trkpt lat="44.57034" lon="-0.3339">
        <ele>12.15</ele>
        <time>2016-10-02T09:25:04Z</time>
      </trkpt>
      <trkpt lat="44.57037" lon="-0.334">
        <ele>12.15</ele>
        <time>2016-10-02T09:25:10Z</time>
      </trkpt>
      <trkpt lat="44.57044" lon="-0.33418">
        <ele>12.15</ele>
        <time>2016-10-02T09:25:26Z</time>
      </trkpt>
      <trkpt lat="44.57044" lon="-0.33448">
        <ele>12.63</ele>
        <time>2016-10-02T09:25:43Z</time>
      </trkpt>
      <trkpt lat="44.57045" lon="-0.33472">
        <ele>12.63</ele>
        <time>2016-10-02T09:26:00Z</time>
      </trkpt>
      <trkpt lat="44.5704" lon="-0.33498">
        <ele>12.63</ele>
        <time>2016-10-02T09:26:18Z</time>
      </trkpt>
      <trkpt lat="44.57037" lon="-0.33523">
        <ele>12.63</ele>
        <time>2016-10-02T09:26:35Z</time>
      </trkpt>
      <trkpt lat="44.57033" lon="-0.3355">
        <ele>13.12</ele>
        <time>2016-10-02T09:26:51Z</time>
      </trkpt>
      <trkpt lat="44.57031" lon="-0.33579">
        <ele>13.12</ele>
        <time>2016-10-02T09:27:08Z</time>
      </trkpt>
      <trkpt lat="44.57029" lon="-0.33603">
        <ele>13.12</ele>
        <time>2016-10-02T09:27:24Z</time>
      </trkpt>
      <trkpt lat="44.57026" lon="-0.3363">
        <ele>13.6</ele>
        <time>2016-10-02T09:27:42Z</time>
      </trkpt>
      <trkpt lat="44.57029" lon="-0.33656">
        <ele>13.6</ele>
        <time>2016-10-02T09:27:58Z</time>
      </trkpt>
      <trkpt lat="44.57032" lon="-0.3368">
        <ele>14.08</ele>
        <time>2016-10-02T09:28:14Z</time>
      </trkpt>
      <trkpt lat="44.57036" lon="-0.33702">
        <ele>14.08</ele>
        <time>2016-10-02T09:28:31Z</time>
      </trkpt>
      <trkpt lat="44.57038" lon="-0.3373">
        <ele>13.12</ele>
        <time>2016-10-02T09:28:47Z</time>
      </trkpt>
      <trkpt lat="44.57038" lon="-0.33731">
        <ele>13.12</ele>
        <time>2016-10-02T09:28:48Z</time>
      </trkpt>
      <trkpt lat="44.57039" lon="-0.33752">
        <ele>13.6</ele>
        <time>2016-10-02T09:29:03Z</time>
      </trkpt>
      <trkpt lat="44.57039" lon="-0.33758">
        <ele>13.6</ele>
        <time>2016-10-02T09:29:22Z</time>
      </trkpt>
      <trkpt lat="44.57037" lon="-0.33758">
        <ele>14.08</ele>
        <time>2016-10-02T09:29:38Z</time>
      </trkpt>
      <trkpt lat="44.57038" lon="-0.33747">
        <ele>14.08</ele>
        <time>2016-10-02T09:29:54Z</time>
      </trkpt>
      <trkpt lat="44.57037" lon="-0.33743">
        <ele>14.08</ele>
        <time>2016-10-02T09:30:18Z</time>
      </trkpt>
      <trkpt lat="44.57034" lon="-0.33734">
        <ele>15.52</ele>
        <time>2016-10-02T09:30:37Z</time>
      </trkpt>
      <trkpt lat="44.57029" lon="-0.33717">
        <ele>15.52</ele>
        <time>2016-10-02T09:30:55Z</time>
      </trkpt>
      <trkpt lat="44.57031" lon="-0.337">
        <ele>15.52</ele>
        <time>2016-10-02T09:31:10Z</time>
      </trkpt>
      <trkpt lat="44.57032" lon="-0.33689">
        <ele>16</ele>
        <time>2016-10-02T09:31:38Z</time>
      </trkpt>
      <trkpt lat="44.57037" lon="-0.33686">
        <ele>16</ele>
        <time>2016-10-02T09:32:05Z</time>
      </trkpt>
      <trkpt lat="44.57037" lon="-0.33669">
        <ele>16</ele>
        <time>2016-10-02T09:32:22Z</time>
      </trkpt>
      <trkpt lat="44.57036" lon="-0.33658">
        <ele>16</ele>
        <time>2016-10-02T09:32:38Z</time>
      </trkpt>
      <trkpt lat="44.57036" lon="-0.33654">
        <ele>16.48</ele>
        <time>2016-10-02T09:32:55Z</time>
      </trkpt>
      <trkpt lat="44.57041" lon="-0.33642">
        <ele>16.48</ele>
        <time>2016-10-02T09:33:13Z</time>
      </trkpt>
      <trkpt lat="44.57045" lon="-0.33626">
        <ele>16.48</ele>
        <time>2016-10-02T09:33:32Z</time>
      </trkpt>
      <trkpt lat="44.57048" lon="-0.33607">
        <ele>16.48</ele>
        <time>2016-10-02T09:33:49Z</time>
      </trkpt>
      <trkpt lat="44.57052" lon="-0.33589">
        <ele>16.48</ele>
        <time>2016-10-02T09:34:07Z</time>
      </trkpt>
      <trkpt lat="44.57057" lon="-0.33574">
        <ele>16.48</ele>
        <time>2016-10-02T09:34:21Z</time>
      </trkpt>
      <trkpt lat="44.57066" lon="-0.33555">
        <ele>16.48</ele>
        <time>2016-10-02T09:34:39Z</time>
      </trkpt>
      <trkpt lat="44.57072" lon="-0.3354">
        <ele>16.48</ele>
        <time>2016-10-02T09:34:54Z</time>
      </trkpt>
      <trkpt lat="44.57076" lon="-0.33536">
        <ele>16.48</ele>
        <time>2016-10-02T09:35:07Z</time>
      </trkpt>
      <trkpt lat="44.57084" lon="-0.33518">
        <ele>16.48</ele>
        <time>2016-10-02T09:35:22Z</time>
      </trkpt>
      <trkpt lat="44.5709" lon="-0.33497">
        <ele>16.48</ele>
        <time>2016-10-02T09:35:41Z</time>
      </trkpt>
      <trkpt lat="44.5709" lon="-0.33478">
        <ele>16.48</ele>
        <time>2016-10-02T09:35:58Z</time>
      </trkpt>
      <trkpt lat="44.57092" lon="-0.33457">
        <ele>16.48</ele>
        <time>2016-10-02T09:36:17Z</time>
      </trkpt>
      <trkpt lat="44.5709" lon="-0.33443">
        <ele>16.48</ele>
        <time>2016-10-02T09:36:32Z</time>
      </trkpt>
      <trkpt lat="44.57088" lon="-0.33428">
        <ele>16.48</ele>
        <time>2016-10-02T09:36:48Z</time>
      </trkpt>
      <trkpt lat="44.57094" lon="-0.33395">
        <ele>16.48</ele>
        <time>2016-10-02T09:37:09Z</time>
      </trkpt>
      <trkpt lat="44.57099" lon="-0.33383">
        <ele>16.48</ele>
        <time>2016-10-02T09:37:23Z</time>
      </trkpt>
      <trkpt lat="44.57105" lon="-0.33361">
        <ele>16.48</ele>
        <time>2016-10-02T09:37:43Z</time>
      </trkpt>
      <trkpt lat="44.57116" lon="-0.33342">
        <ele>16.48</ele>
        <time>2016-10-02T09:38:02Z</time>
      </trkpt>
      <trkpt lat="44.57124" lon="-0.33332">
        <ele>16.48</ele>
        <time>2016-10-02T09:38:11Z</time>
      </trkpt>
      <trkpt lat="44.57136" lon="-0.33311">
        <ele>16.48</ele>
        <time>2016-10-02T09:38:28Z</time>
      </trkpt>
      <trkpt lat="44.57147" lon="-0.33296">
        <ele>16.48</ele>
        <time>2016-10-02T09:38:46Z</time>
      </trkpt>
      <trkpt lat="44.57158" lon="-0.3328">
        <ele>16.48</ele>
        <time>2016-10-02T09:39:03Z</time>
      </trkpt>
      <trkpt lat="44.57168" lon="-0.33262">
        <ele>16.48</ele>
        <time>2016-10-02T09:39:20Z</time>
      </trkpt>
      <trkpt lat="44.57178" lon="-0.33243">
        <ele>16.48</ele>
        <time>2016-10-02T09:39:37Z</time>
      </trkpt>
      <trkpt lat="44.57179" lon="-0.33239">
        <ele>16.48</ele>
        <time>2016-10-02T09:39:40Z</time>
      </trkpt>
      <trkpt lat="44.57192" lon="-0.33219">
        <ele>16.48</ele>
        <time>2016-10-02T09:39:59Z</time>
      </trkpt>
      <trkpt lat="44.57201" lon="-0.33198">
        <ele>16.48</ele>
        <time>2016-10-02T09:40:18Z</time>
      </trkpt>
      <trkpt lat="44.57205" lon="-0.33176">
        <ele>16.48</ele>
        <time>2016-10-02T09:40:35Z</time>
      </trkpt>
      <trkpt lat="44.57208" lon="-0.33157">
        <ele>16.48</ele>
        <time>2016-10-02T09:40:52Z</time>
      </trkpt>
      <trkpt lat="44.57212" lon="-0.33132">
        <ele>16.48</ele>
        <time>2016-10-02T09:41:08Z</time>
      </trkpt>
      <trkpt lat="44.57218" lon="-0.33114">
        <ele>16</ele>
        <time>2016-10-02T09:41:24Z</time>
      </trkpt>
      <trkpt lat="44.57226" lon="-0.33086">
        <ele>16</ele>
        <time>2016-10-02T09:41:45Z</time>
      </trkpt>
      <trkpt lat="44.57241" lon="-0.33067">
        <ele>16</ele>
        <time>2016-10-02T09:42:04Z</time>
      </trkpt>
      <trkpt lat="44.57255" lon="-0.33051">
        <ele>16</ele>
        <time>2016-10-02T09:42:23Z</time>
      </trkpt>
      <trkpt lat="44.57269" lon="-0.33045">
        <ele>16.48</ele>
        <time>2016-10-02T09:42:39Z</time>
      </trkpt>
      <trkpt lat="44.57287" lon="-0.33039">
        <ele>16.48</ele>
        <time>2016-10-02T09:42:58Z</time>
      </trkpt>
      <trkpt lat="44.5729" lon="-0.33033">
        <ele>16.48</ele>
        <time>2016-10-02T09:43:19Z</time>
      </trkpt>
      <trkpt lat="44.57294" lon="-0.33033">
        <ele>16.48</ele>
        <time>2016-10-02T09:43:40Z</time>
      </trkpt>
      <trkpt lat="44.57297" lon="-0.33027">
        <ele>18.4</ele>
        <time>2016-10-02T09:43:57Z</time>
      </trkpt>
      <trkpt lat="44.573" lon="-0.33041">
        <ele>18.88</ele>
        <time>2016-10-02T09:44:13Z</time>
      </trkpt>
      <trkpt lat="44.57304" lon="-0.33055">
        <ele>18.88</ele>
        <time>2016-10-02T09:44:29Z</time>
      </trkpt>
      <trkpt lat="44.57306" lon="-0.33074">
        <ele>18.88</ele>
        <time>2016-10-02T09:44:46Z</time>
      </trkpt>
      <trkpt lat="44.5731" lon="-0.33094">
        <ele>18.88</ele>
        <time>2016-10-02T09:45:04Z</time>
      </trkpt>
      <trkpt lat="44.57314" lon="-0.33118">
        <ele>18.88</ele>
        <time>2016-10-02T09:45:21Z</time>
      </trkpt>
      <trkpt lat="44.57323" lon="-0.33151">
        <ele>19.36</ele>
        <time>2016-10-02T09:45:43Z</time>
      </trkpt>
      <trkpt lat="44.57316" lon="-0.33158">
        <ele>19.36</ele>
        <time>2016-10-02T09:46:00Z</time>
      </trkpt>
      <trkpt lat="44.57323" lon="-0.33157">
        <ele>19.36</ele>
        <time>2016-10-02T09:46:15Z</time>
      </trkpt>
      <trkpt lat="44.57329" lon="-0.33163">
        <ele>19.36</ele>
        <time>2016-10-02T09:46:31Z</time>
      </trkpt>
      <trkpt lat="44.57333" lon="-0.33167">
        <ele>19.36</ele>
        <time>2016-10-02T09:46:38Z</time>
      </trkpt>
      <trkpt lat="44.57348" lon="-0.33177">
        <ele>19.36</ele>
        <time>2016-10-02T09:46:55Z</time>
      </trkpt>
      <trkpt lat="44.57363" lon="-0.33191">
        <ele>19.84</ele>
        <time>2016-10-02T09:47:10Z</time>
      </trkpt>
      <trkpt lat="44.57382" lon="-0.33204">
        <ele>20.32</ele>
        <time>2016-10-02T09:47:28Z</time>
      </trkpt>
      <trkpt lat="44.57393" lon="-0.33209">
        <ele>20.32</ele>
        <time>2016-10-02T09:47:38Z</time>
      </trkpt>
      <trkpt lat="44.57404" lon="-0.33228">
        <ele>20.32</ele>
        <time>2016-10-02T09:47:56Z</time>
      </trkpt>
      <trkpt lat="44.57396" lon="-0.3325">
        <ele>20.32</ele>
        <time>2016-10-02T09:48:14Z</time>
      </trkpt>
      <trkpt lat="44.57385" lon="-0.33274">
        <ele>20.32</ele>
        <time>2016-10-02T09:48:33Z</time>
      </trkpt>
      <trkpt lat="44.57373" lon="-0.33298">
        <ele>20.81</ele>
        <time>2016-10-02T09:48:53Z</time>
      </trkpt>
      <trkpt lat="44.57368" lon="-0.33311">
        <ele>20.81</ele>
        <time>2016-10-02T09:49:03Z</time>
      </trkpt>
      <trkpt lat="44.57353" lon="-0.33342">
        <ele>20.81</ele>
        <time>2016-10-02T09:49:26Z</time>
      </trkpt>
      <trkpt lat="44.57338" lon="-0.33367">
        <ele>20.81</ele>
        <time>2016-10-02T09:49:45Z</time>
      </trkpt>
      <trkpt lat="44.57324" lon="-0.33395">
        <ele>20.81</ele>
        <time>2016-10-02T09:50:07Z</time>
      </trkpt>
      <trkpt lat="44.5732" lon="-0.33405">
        <ele>20.81</ele>
        <time>2016-10-02T09:50:18Z</time>
      </trkpt>
      <trkpt lat="44.57309" lon="-0.33435">
        <ele>20.81</ele>
        <time>2016-10-02T09:50:40Z</time>
      </trkpt>
      <trkpt lat="44.57298" lon="-0.33465">
        <ele>20.81</ele>
        <time>2016-10-02T09:51:01Z</time>
      </trkpt>
      <trkpt lat="44.57287" lon="-0.33491">
        <ele>20.32</ele>
        <time>2016-10-02T09:51:20Z</time>
      </trkpt>
      <trkpt lat="44.57274" lon="-0.33517">
        <ele>20.32</ele>
        <time>2016-10-02T09:51:39Z</time>
      </trkpt>
      <trkpt lat="44.57263" lon="-0.33536">
        <ele>19.36</ele>
        <time>2016-10-02T09:51:55Z</time>
      </trkpt>
      <trkpt lat="44.57247" lon="-0.33562">
        <ele>18.88</ele>
        <time>2016-10-02T09:52:16Z</time>
      </trkpt>
      <trkpt lat="44.57233" lon="-0.33586">
        <ele>18.4</ele>
        <time>2016-10-02T09:52:36Z</time>
      </trkpt>
      <trkpt lat="44.57218" lon="-0.33608">
        <ele>18.4</ele>
        <time>2016-10-02T09:52:54Z</time>
      </trkpt>
      <trkpt lat="44.57205" lon="-0.33631">
        <ele>18.4</ele>
        <time>2016-10-02T09:53:14Z</time>
      </trkpt>
      <trkpt lat="44.57192" lon="-0.33655">
        <ele>18.4</ele>
        <time>2016-10-02T09:53:33Z</time>
      </trkpt>
      <trkpt lat="44.5718" lon="-0.33681">
        <ele>19.36</ele>
        <time>2016-10-02T09:53:53Z</time>
      </trkpt>
      <trkpt lat="44.57171" lon="-0.33707">
        <ele>19.36</ele>
        <time>2016-10-02T09:54:13Z</time>
      </trkpt>
      <trkpt lat="44.57163" lon="-0.33731">
        <ele>19.36</ele>
        <time>2016-10-02T09:54:32Z</time>
      </trkpt>
      <trkpt lat="44.57156" lon="-0.33755">
        <ele>19.36</ele>
        <time>2016-10-02T09:54:53Z</time>
      </trkpt>
      <trkpt lat="44.57155" lon="-0.33774">
        <ele>19.36</ele>
        <time>2016-10-02T09:55:07Z</time>
      </trkpt>
      <trkpt lat="44.57152" lon="-0.338">
        <ele>19.84</ele>
        <time>2016-10-02T09:55:25Z</time>
      </trkpt>
      <trkpt lat="44.57144" lon="-0.33825">
        <ele>19.84</ele>
        <time>2016-10-02T09:55:42Z</time>
      </trkpt>
      <trkpt lat="44.57142" lon="-0.33846">
        <ele>19.84</ele>
        <time>2016-10-02T09:55:57Z</time>
      </trkpt>
      <trkpt lat="44.57135" lon="-0.33869">
        <ele>19.84</ele>
        <time>2016-10-02T09:56:13Z</time>
      </trkpt>
      <trkpt lat="44.57127" lon="-0.33901">
        <ele>20.81</ele>
        <time>2016-10-02T09:56:31Z</time>
      </trkpt>
      <trkpt lat="44.57119" lon="-0.33922">
        <ele>21.29</ele>
        <time>2016-10-02T09:56:47Z</time>
      </trkpt>
      <trkpt lat="44.57108" lon="-0.33948">
        <ele>21.29</ele>
        <time>2016-10-02T09:57:05Z</time>
      </trkpt>
      <trkpt lat="44.571" lon="-0.33968">
        <ele>21.29</ele>
        <time>2016-10-02T09:57:22Z</time>
      </trkpt>
      <trkpt lat="44.57088" lon="-0.33997">
        <ele>21.29</ele>
        <time>2016-10-02T09:57:42Z</time>
      </trkpt>
      <trkpt lat="44.57087" lon="-0.34">
        <ele>20.32</ele>
        <time>2016-10-02T09:57:44Z</time>
      </trkpt>
      <trkpt lat="44.5708" lon="-0.34031">
        <ele>20.32</ele>
        <time>2016-10-02T09:58:02Z</time>
      </trkpt>
      <trkpt lat="44.57074" lon="-0.34043">
        <ele>21.29</ele>
        <time>2016-10-02T09:58:12Z</time>
      </trkpt>
      <trkpt lat="44.57067" lon="-0.34073">
        <ele>21.29</ele>
        <time>2016-10-02T09:58:32Z</time>
      </trkpt>
      <trkpt lat="44.57055" lon="-0.3409">
        <ele>19.84</ele>
        <time>2016-10-02T09:58:48Z</time>
      </trkpt>
      <trkpt lat="44.57047" lon="-0.34097">
        <ele>18.88</ele>
        <time>2016-10-02T09:59:05Z</time>
      </trkpt>
      <trkpt lat="44.57042" lon="-0.34101">
        <ele>16.96</ele>
        <time>2016-10-02T09:59:20Z</time>
      </trkpt>
      <trkpt lat="44.5703" lon="-0.34115">
        <ele>14.56</ele>
        <time>2016-10-02T09:59:37Z</time>
      </trkpt>
      <trkpt lat="44.57015" lon="-0.34131">
        <ele>14.08</ele>
        <time>2016-10-02T09:59:54Z</time>
      </trkpt>
      <trkpt lat="44.57002" lon="-0.34148">
        <ele>14.08</ele>
        <time>2016-10-02T10:00:12Z</time>
      </trkpt>
      <trkpt lat="44.56988" lon="-0.3417">
        <ele>14.08</ele>
        <time>2016-10-02T10:00:32Z</time>
      </trkpt>
      <trkpt lat="44.56971" lon="-0.34194">
        <ele>14.08</ele>
        <time>2016-10-02T10:00:50Z</time>
      </trkpt>
      <trkpt lat="44.56954" lon="-0.34216">
        <ele>14.08</ele>
        <time>2016-10-02T10:01:10Z</time>
      </trkpt>
      <trkpt lat="44.56938" lon="-0.34236">
        <ele>14.56</ele>
        <time>2016-10-02T10:01:30Z</time>
      </trkpt>
      <trkpt lat="44.56924" lon="-0.34252">
        <ele>14.56</ele>
        <time>2016-10-02T10:01:48Z</time>
      </trkpt>
      <trkpt lat="44.56912" lon="-0.34268">
        <ele>14.56</ele>
        <time>2016-10-02T10:02:07Z</time>
      </trkpt>
      <trkpt lat="44.56898" lon="-0.34281">
        <ele>14.56</ele>
        <time>2016-10-02T10:02:24Z</time>
      </trkpt>
      <trkpt lat="44.56883" lon="-0.34297">
        <ele>14.56</ele>
        <time>2016-10-02T10:02:43Z</time>
      </trkpt>
      <trkpt lat="44.56868" lon="-0.34311">
        <ele>14.56</ele>
        <time>2016-10-02T10:03:00Z</time>
      </trkpt>
      <trkpt lat="44.56852" lon="-0.34322">
        <ele>14.56</ele>
        <time>2016-10-02T10:03:17Z</time>
      </trkpt>
      <trkpt lat="44.56837" lon="-0.34332">
        <ele>14.56</ele>
        <time>2016-10-02T10:03:35Z</time>
      </trkpt>
      <trkpt lat="44.56817" lon="-0.34343">
        <ele>14.56</ele>
        <time>2016-10-02T10:03:54Z</time>
      </trkpt>
      <trkpt lat="44.56797" lon="-0.34353">
        <ele>14.56</ele>
        <time>2016-10-02T10:04:12Z</time>
      </trkpt>
      <trkpt lat="44.56778" lon="-0.34362">
        <ele>14.56</ele>
        <time>2016-10-02T10:04:33Z</time>
      </trkpt>
      <trkpt lat="44.56761" lon="-0.34372">
        <ele>14.56</ele>
        <time>2016-10-02T10:04:51Z</time>
      </trkpt>
      <trkpt lat="44.56748" lon="-0.34396">
        <ele>14.56</ele>
        <time>2016-10-02T10:05:09Z</time>
      </trkpt>
      <trkpt lat="44.56729" lon="-0.34418">
        <ele>14.56</ele>
        <time>2016-10-02T10:05:28Z</time>
      </trkpt>
      <trkpt lat="44.56727" lon="-0.3442">
        <ele>14.56</ele>
        <time>2016-10-02T10:05:31Z</time>
      </trkpt>
      <trkpt lat="44.56715" lon="-0.34441">
        <ele>14.56</ele>
        <time>2016-10-02T10:05:51Z</time>
      </trkpt>
      <trkpt lat="44.56705" lon="-0.34457">
        <ele>14.56</ele>
        <time>2016-10-02T10:06:04Z</time>
      </trkpt>
      <trkpt lat="44.56692" lon="-0.34476">
        <ele>16</ele>
        <time>2016-10-02T10:06:22Z</time>
      </trkpt>
      <trkpt lat="44.56684" lon="-0.345">
        <ele>16.96</ele>
        <time>2016-10-02T10:06:39Z</time>
      </trkpt>
      <trkpt lat="44.56671" lon="-0.34514">
        <ele>17.44</ele>
        <time>2016-10-02T10:06:56Z</time>
      </trkpt>
      <trkpt lat="44.56661" lon="-0.34526">
        <ele>17.44</ele>
        <time>2016-10-02T10:07:11Z</time>
      </trkpt>
      <trkpt lat="44.56653" lon="-0.34538">
        <ele>17.44</ele>
        <time>2016-10-02T10:07:27Z</time>
      </trkpt>
      <trkpt lat="44.56636" lon="-0.34558">
        <ele>17.44</ele>
        <time>2016-10-02T10:07:47Z</time>
      </trkpt>
      <trkpt lat="44.56623" lon="-0.34577">
        <ele>15.52</ele>
        <time>2016-10-02T10:08:06Z</time>
      </trkpt>
      <trkpt lat="44.56606" lon="-0.346">
        <ele>16</ele>
        <time>2016-10-02T10:08:26Z</time>
      </trkpt>
      <trkpt lat="44.56597" lon="-0.34622">
        <ele>16</ele>
        <time>2016-10-02T10:08:42Z</time>
      </trkpt>
      <trkpt lat="44.56588" lon="-0.34642">
        <ele>16</ele>
        <time>2016-10-02T10:09:00Z</time>
      </trkpt>
      <trkpt lat="44.56584" lon="-0.34664">
        <ele>17.44</ele>
        <time>2016-10-02T10:09:17Z</time>
      </trkpt>
      <trkpt lat="44.56577" lon="-0.34683">
        <ele>17.44</ele>
        <time>2016-10-02T10:09:33Z</time>
      </trkpt>
      <trkpt lat="44.56572" lon="-0.34708">
        <ele>18.88</ele>
        <time>2016-10-02T10:09:51Z</time>
      </trkpt>
      <trkpt lat="44.56576" lon="-0.34727">
        <ele>20.81</ele>
        <time>2016-10-02T10:10:10Z</time>
      </trkpt>
      <trkpt lat="44.56577" lon="-0.34756">
        <ele>20.81</ele>
        <time>2016-10-02T10:10:28Z</time>
      </trkpt>
      <trkpt lat="44.56577" lon="-0.34783">
        <ele>20.81</ele>
        <time>2016-10-02T10:10:47Z</time>
      </trkpt>
      <trkpt lat="44.56571" lon="-0.34804">
        <ele>20.81</ele>
        <time>2016-10-02T10:11:06Z</time>
      </trkpt>
      <trkpt lat="44.56565" lon="-0.3481">
        <ele>19.36</ele>
        <time>2016-10-02T10:11:19Z</time>
      </trkpt>
      <trkpt lat="44.56559" lon="-0.34824">
        <ele>18.88</ele>
        <time>2016-10-02T10:11:31Z</time>
      </trkpt>
      <trkpt lat="44.56548" lon="-0.34846">
        <ele>18.88</ele>
        <time>2016-10-02T10:11:48Z</time>
      </trkpt>
      <trkpt lat="44.5654" lon="-0.34877">
        <ele>18.4</ele>
        <time>2016-10-02T10:12:09Z</time>
      </trkpt>
      <trkpt lat="44.56533" lon="-0.34905">
        <ele>19.36</ele>
        <time>2016-10-02T10:12:31Z</time>
      </trkpt>
      <trkpt lat="44.56524" lon="-0.34922">
        <ele>18.4</ele>
        <time>2016-10-02T10:12:50Z</time>
      </trkpt>
      <trkpt lat="44.56516" lon="-0.34938">
        <ele>16.48</ele>
        <time>2016-10-02T10:13:06Z</time>
      </trkpt>
      <trkpt lat="44.56506" lon="-0.34958">
        <ele>15.52</ele>
        <time>2016-10-02T10:13:23Z</time>
      </trkpt>
      <trkpt lat="44.56498" lon="-0.3498">
        <ele>15.52</ele>
        <time>2016-10-02T10:13:41Z</time>
      </trkpt>
      <trkpt lat="44.56493" lon="-0.34995">
        <ele>18.4</ele>
        <time>2016-10-02T10:13:57Z</time>
      </trkpt>
      <trkpt lat="44.56487" lon="-0.35015">
        <ele>18.88</ele>
        <time>2016-10-02T10:14:13Z</time>
      </trkpt>
      <trkpt lat="44.56483" lon="-0.35036">
        <ele>19.84</ele>
        <time>2016-10-02T10:14:28Z</time>
      </trkpt>
      <trkpt lat="44.56479" lon="-0.35066">
        <ele>20.32</ele>
        <time>2016-10-02T10:14:48Z</time>
      </trkpt>
      <trkpt lat="44.56476" lon="-0.35081">
        <ele>21.29</ele>
        <time>2016-10-02T10:15:06Z</time>
      </trkpt>
      <trkpt lat="44.56471" lon="-0.35077">
        <ele>21.29</ele>
        <time>2016-10-02T10:15:26Z</time>
      </trkpt>
      <trkpt lat="44.5647" lon="-0.35078">
        <ele>21.29</ele>
        <time>2016-10-02T10:15:48Z</time>
      </trkpt>
      <trkpt lat="44.56475" lon="-0.35075">
        <ele>21.29</ele>
        <time>2016-10-02T10:16:08Z</time>
      </trkpt>
      <trkpt lat="44.56477" lon="-0.35076">
        <ele>21.29</ele>
        <time>2016-10-02T10:16:26Z</time>
      </trkpt>
      <trkpt lat="44.56479" lon="-0.35076">
        <ele>21.29</ele>
        <time>2016-10-02T10:16:43Z</time>
      </trkpt>
      <trkpt lat="44.56476" lon="-0.35079">
        <ele>21.29</ele>
        <time>2016-10-02T10:16:59Z</time>
      </trkpt>
      <trkpt lat="44.56465" lon="-0.35094">
        <ele>21.29</ele>
        <time>2016-10-02T10:17:17Z</time>
      </trkpt>
      <trkpt lat="44.56464" lon="-0.35095">
        <ele>21.29</ele>
        <time>2016-10-02T10:17:18Z</time>
      </trkpt>
      <trkpt lat="44.56451" lon="-0.35117">
        <ele>19.84</ele>
        <time>2016-10-02T10:17:35Z</time>
      </trkpt>
      <trkpt lat="44.56444" lon="-0.35138">
        <ele>19.36</ele>
        <time>2016-10-02T10:17:51Z</time>
      </trkpt>
      <trkpt lat="44.56431" lon="-0.35151">
        <ele>18.88</ele>
        <time>2016-10-02T10:18:06Z</time>
      </trkpt>
      <trkpt lat="44.5642" lon="-0.35161">
        <ele>18.88</ele>
        <time>2016-10-02T10:18:21Z</time>
      </trkpt>
      <trkpt lat="44.56404" lon="-0.35178">
        <ele>18.4</ele>
        <time>2016-10-02T10:18:39Z</time>
      </trkpt>
      <trkpt lat="44.5639" lon="-0.35203">
        <ele>17.44</ele>
        <time>2016-10-02T10:19:00Z</time>
      </trkpt>
      <trkpt lat="44.56378" lon="-0.3523">
        <ele>17.44</ele>
        <time>2016-10-02T10:19:18Z</time>
      </trkpt>
      <trkpt lat="44.56364" lon="-0.35246">
        <ele>17.44</ele>
        <time>2016-10-02T10:19:35Z</time>
      </trkpt>
      <trkpt lat="44.56344" lon="-0.35262">
        <ele>17.44</ele>
        <time>2016-10-02T10:19:54Z</time>
      </trkpt>
      <trkpt lat="44.5632" lon="-0.35281">
        <ele>17.44</ele>
        <time>2016-10-02T10:20:15Z</time>
      </trkpt>
      <trkpt lat="44.56309" lon="-0.3529">
        <ele>17.44</ele>
        <time>2016-10-02T10:20:26Z</time>
      </trkpt>
      <trkpt lat="44.56304" lon="-0.35294">
        <ele>17.44</ele>
        <time>2016-10-02T10:20:30Z</time>
      </trkpt>
      <trkpt lat="44.56289" lon="-0.3532">
        <ele>18.4</ele>
        <time>2016-10-02T10:20:51Z</time>
      </trkpt>
      <trkpt lat="44.56288" lon="-0.35323">
        <ele>18.88</ele>
        <time>2016-10-02T10:20:53Z</time>
      </trkpt>
      <trkpt lat="44.56287" lon="-0.35334">
        <ele>19.36</ele>
        <time>2016-10-02T10:21:03Z</time>
      </trkpt>
      <trkpt lat="44.56298" lon="-0.35339">
        <ele>20.32</ele>
        <time>2016-10-02T10:21:15Z</time>
      </trkpt>
      <trkpt lat="44.56304" lon="-0.3534">
        <ele>20.81</ele>
        <time>2016-10-02T10:21:30Z</time>
      </trkpt>
      <trkpt lat="44.56305" lon="-0.35341">
        <ele>21.29</ele>
        <time>2016-10-02T10:21:46Z</time>
      </trkpt>
      <trkpt lat="44.56312" lon="-0.35339">
        <ele>21.29</ele>
        <time>2016-10-02T10:21:59Z</time>
      </trkpt>
      <trkpt lat="44.5631" lon="-0.3534">
        <ele>21.29</ele>
        <time>2016-10-02T10:22:12Z</time>
      </trkpt>
      <trkpt lat="44.56317" lon="-0.35336">
        <ele>21.77</ele>
        <time>2016-10-02T10:22:27Z</time>
      </trkpt>
      <trkpt lat="44.56322" lon="-0.35333">
        <ele>21.77</ele>
        <time>2016-10-02T10:22:43Z</time>
      </trkpt>
      <trkpt lat="44.56323" lon="-0.35322">
        <ele>21.77</ele>
        <time>2016-10-02T10:23:08Z</time>
      </trkpt>
      <trkpt lat="44.56332" lon="-0.35326">
        <ele>21.77</ele>
        <time>2016-10-02T10:23:30Z</time>
      </trkpt>
      <trkpt lat="44.56314" lon="-0.35336">
        <ele>21.29</ele>
        <time>2016-10-02T10:23:45Z</time>
      </trkpt>
      <trkpt lat="44.5631" lon="-0.35337">
        <ele>20.32</ele>
        <time>2016-10-02T10:24:02Z</time>
      </trkpt>
      <trkpt lat="44.56309" lon="-0.35337">
        <ele>20.32</ele>
        <time>2016-10-02T10:24:26Z</time>
      </trkpt>
      <trkpt lat="44.56308" lon="-0.35339">
        <ele>20.32</ele>
        <time>2016-10-02T10:24:57Z</time>
      </trkpt>
      <trkpt lat="44.56309" lon="-0.35341">
        <ele>19.84</ele>
        <time>2016-10-02T10:25:23Z</time>
      </trkpt>
      <trkpt lat="44.56308" lon="-0.35339">
        <ele>20.81</ele>
        <time>2016-10-02T10:25:42Z</time>
      </trkpt>
      <trkpt lat="44.56313" lon="-0.35339">
        <ele>19.84</ele>
        <time>2016-10-02T10:26:14Z</time>
      </trkpt>
      <trkpt lat="44.56311" lon="-0.35339">
        <ele>19.36</ele>
        <time>2016-10-02T10:26:48Z</time>
      </trkpt>
      <trkpt lat="44.56308" lon="-0.35338">
        <ele>20.81</ele>
        <time>2016-10-02T10:27:07Z</time>
      </trkpt>
      <trkpt lat="44.563" lon="-0.35342">
        <ele>20.81</ele>
        <time>2016-10-02T10:27:20Z</time>
      </trkpt>
      <trkpt lat="44.56291" lon="-0.35344">
        <ele>20.81</ele>
        <time>2016-10-02T10:27:33Z</time>
      </trkpt>
      <trkpt lat="44.56277" lon="-0.3535">
        <ele>20.81</ele>
        <time>2016-10-02T10:27:49Z</time>
      </trkpt>
      <trkpt lat="44.56271" lon="-0.3536">
        <ele>20.81</ele>
        <time>2016-10-02T10:28:04Z</time>
      </trkpt>
      <trkpt lat="44.56271" lon="-0.35364">
        <ele>20.81</ele>
        <time>2016-10-02T10:28:22Z</time>
      </trkpt>
      <trkpt lat="44.56266" lon="-0.35365">
        <ele>20.81</ele>
        <time>2016-10-02T10:28:41Z</time>
      </trkpt>
      <trkpt lat="44.56267" lon="-0.35365">
        <ele>20.81</ele>
        <time>2016-10-02T10:29:00Z</time>
      </trkpt>
      <trkpt lat="44.5627" lon="-0.3537">
        <ele>20.81</ele>
        <time>2016-10-02T10:29:13Z</time>
      </trkpt>
      <trkpt lat="44.56269" lon="-0.3537">
        <ele>20.81</ele>
        <time>2016-10-02T10:29:31Z</time>
      </trkpt>
      <trkpt lat="44.56257" lon="-0.35378">
        <ele>20.81</ele>
        <time>2016-10-02T10:29:47Z</time>
      </trkpt>
      <trkpt lat="44.56247" lon="-0.35388">
        <ele>20.81</ele>
        <time>2016-10-02T10:30:03Z</time>
      </trkpt>
      <trkpt lat="44.56235" lon="-0.35399">
        <ele>20.81</ele>
        <time>2016-10-02T10:30:19Z</time>
      </trkpt>
      <trkpt lat="44.56217" lon="-0.35416">
        <ele>20.81</ele>
        <time>2016-10-02T10:30:39Z</time>
      </trkpt>
      <trkpt lat="44.56204" lon="-0.35431">
        <ele>20.81</ele>
        <time>2016-10-02T10:30:56Z</time>
      </trkpt>
      <trkpt lat="44.56187" lon="-0.35447">
        <ele>21.29</ele>
        <time>2016-10-02T10:31:13Z</time>
      </trkpt>
      <trkpt lat="44.56178" lon="-0.35471">
        <ele>21.29</ele>
        <time>2016-10-02T10:31:28Z</time>
      </trkpt>
      <trkpt lat="44.56175" lon="-0.35483">
        <ele>21.29</ele>
        <time>2016-10-02T10:31:41Z</time>
      </trkpt>
    </trkseg>
  </trk>
</gpx>